<?xml version="1.0" encoding="UTF-8"?>
<gpx
  version="1.1"
  creator="RunKeeper - http://www.runkeeper.com"
  xmlns:xsi="http://www.w3.org/2001/XMLSchema-instance"
  xmlns="http://www.topografix.com/GPX/1/1"
  xsi:schemaLocation="http://www.topografix.com/GPX/1/1 http://www.topografix.com/GPX/1/1/gpx.xsd"
  xmlns:gpxtpx="http://www.garmin.com/xmlschemas/TrackPointExtension/v1">
<trk>
  <name><![CDATA[Mountain Biking 9/29/13 4:01 pm]]></name>
  <time>2013-09-29T16:01:55Z</time>
<trkseg>
<trkpt lat="63.803734000" lon="20.346091000"><ele>40.0</ele><time>2013-09-29T16:01:55Z</time></trkpt>
<trkpt lat="63.803747000" lon="20.346015000"><ele>40.0</ele><time>2013-09-29T16:02:05Z</time></trkpt>
</trkseg>
<trkseg>
<trkpt lat="63.803353000" lon="20.347303000"><ele>41.0</ele><time>2013-09-29T16:03:34Z</time></trkpt>
<trkpt lat="63.803258000" lon="20.347287000"><ele>41.0</ele><time>2013-09-29T16:03:36Z</time></trkpt>
<trkpt lat="63.803157000" lon="20.347251000"><ele>40.9</ele><time>2013-09-29T16:03:39Z</time></trkpt>
<trkpt lat="63.803073000" lon="20.347136000"><ele>40.8</ele><time>2013-09-29T16:03:42Z</time></trkpt>
<trkpt lat="63.803056000" lon="20.346881000"><ele>40.8</ele><time>2013-09-29T16:03:45Z</time></trkpt>
<trkpt lat="63.803061000" lon="20.346617000"><ele>40.8</ele><time>2013-09-29T16:03:48Z</time></trkpt>
<trkpt lat="63.803049000" lon="20.346405000"><ele>40.8</ele><time>2013-09-29T16:03:51Z</time></trkpt>
<trkpt lat="63.803046000" lon="20.346143000"><ele>40.7</ele><time>2013-09-29T16:03:54Z</time></trkpt>
<trkpt lat="63.803035000" lon="20.345878000"><ele>40.6</ele><time>2013-09-29T16:03:57Z</time></trkpt>
<trkpt lat="63.802948000" lon="20.345684000"><ele>40.5</ele><time>2013-09-29T16:04:00Z</time></trkpt>
<trkpt lat="63.802843000" lon="20.345672000"><ele>40.5</ele><time>2013-09-29T16:04:02Z</time></trkpt>
<trkpt lat="63.802751000" lon="20.345580000"><ele>40.4</ele><time>2013-09-29T16:04:04Z</time></trkpt>
<trkpt lat="63.802713000" lon="20.345316000"><ele>40.3</ele><time>2013-09-29T16:04:07Z</time></trkpt>
<trkpt lat="63.802714000" lon="20.345088000"><ele>40.3</ele><time>2013-09-29T16:04:09Z</time></trkpt>
<trkpt lat="63.802709000" lon="20.344831000"><ele>40.3</ele><time>2013-09-29T16:04:12Z</time></trkpt>
<trkpt lat="63.802706000" lon="20.344546000"><ele>40.2</ele><time>2013-09-29T16:04:13Z</time></trkpt>
<trkpt lat="63.802672000" lon="20.344270000"><ele>40.1</ele><time>2013-09-29T16:04:15Z</time></trkpt>
<trkpt lat="63.802632000" lon="20.343983000"><ele>40.0</ele><time>2013-09-29T16:04:17Z</time></trkpt>
<trkpt lat="63.802622000" lon="20.343698000"><ele>40.0</ele><time>2013-09-29T16:04:19Z</time></trkpt>
<trkpt lat="63.802666000" lon="20.343374000"><ele>40.0</ele><time>2013-09-29T16:04:21Z</time></trkpt>
<trkpt lat="63.802727000" lon="20.343002000"><ele>40.0</ele><time>2013-09-29T16:04:23Z</time></trkpt>
<trkpt lat="63.802787000" lon="20.342633000"><ele>40.0</ele><time>2013-09-29T16:04:25Z</time></trkpt>
<trkpt lat="63.802826000" lon="20.342443000"><ele>40.0</ele><time>2013-09-29T16:04:26Z</time></trkpt>
<trkpt lat="63.802868000" lon="20.342250000"><ele>40.0</ele><time>2013-09-29T16:04:27Z</time></trkpt>
<trkpt lat="63.802952000" lon="20.341938000"><ele>40.0</ele><time>2013-09-29T16:04:29Z</time></trkpt>
<trkpt lat="63.803054000" lon="20.341652000"><ele>40.0</ele><time>2013-09-29T16:04:31Z</time></trkpt>
<trkpt lat="63.803162000" lon="20.341344000"><ele>40.0</ele><time>2013-09-29T16:04:33Z</time></trkpt>
<trkpt lat="63.803268000" lon="20.341055000"><ele>40.0</ele><time>2013-09-29T16:04:35Z</time></trkpt>
<trkpt lat="63.803376000" lon="20.340763000"><ele>39.9</ele><time>2013-09-29T16:04:37Z</time></trkpt>
<trkpt lat="63.803482000" lon="20.340469000"><ele>39.8</ele><time>2013-09-29T16:04:39Z</time></trkpt>
<trkpt lat="63.803584000" lon="20.340187000"><ele>39.7</ele><time>2013-09-29T16:04:41Z</time></trkpt>
<trkpt lat="63.803687000" lon="20.339914000"><ele>39.6</ele><time>2013-09-29T16:04:43Z</time></trkpt>
<trkpt lat="63.803786000" lon="20.339647000"><ele>39.5</ele><time>2013-09-29T16:04:45Z</time></trkpt>
<trkpt lat="63.803881000" lon="20.339383000"><ele>39.5</ele><time>2013-09-29T16:04:47Z</time></trkpt>
<trkpt lat="63.803977000" lon="20.339135000"><ele>39.4</ele><time>2013-09-29T16:04:49Z</time></trkpt>
<trkpt lat="63.804101000" lon="20.338956000"><ele>39.2</ele><time>2013-09-29T16:04:51Z</time></trkpt>
<trkpt lat="63.804228000" lon="20.338805000"><ele>39.0</ele><time>2013-09-29T16:04:53Z</time></trkpt>
<trkpt lat="63.804360000" lon="20.338656000"><ele>38.8</ele><time>2013-09-29T16:04:55Z</time></trkpt>
<trkpt lat="63.804489000" lon="20.338494000"><ele>38.6</ele><time>2013-09-29T16:04:57Z</time></trkpt>
<trkpt lat="63.804609000" lon="20.338342000"><ele>38.5</ele><time>2013-09-29T16:04:59Z</time></trkpt>
<trkpt lat="63.804723000" lon="20.338206000"><ele>38.5</ele><time>2013-09-29T16:05:01Z</time></trkpt>
<trkpt lat="63.804842000" lon="20.338102000"><ele>38.4</ele><time>2013-09-29T16:05:03Z</time></trkpt>
<trkpt lat="63.804961000" lon="20.337993000"><ele>38.2</ele><time>2013-09-29T16:05:05Z</time></trkpt>
<trkpt lat="63.805081000" lon="20.337857000"><ele>38.0</ele><time>2013-09-29T16:05:07Z</time></trkpt>
<trkpt lat="63.805190000" lon="20.337724000"><ele>37.8</ele><time>2013-09-29T16:05:09Z</time></trkpt>
<trkpt lat="63.805297000" lon="20.337608000"><ele>37.6</ele><time>2013-09-29T16:05:11Z</time></trkpt>
<trkpt lat="63.805383000" lon="20.337518000"><ele>37.5</ele><time>2013-09-29T16:05:13Z</time></trkpt>
<trkpt lat="63.805467000" lon="20.337439000"><ele>37.5</ele><time>2013-09-29T16:05:15Z</time></trkpt>
<trkpt lat="63.805569000" lon="20.337339000"><ele>37.5</ele><time>2013-09-29T16:05:18Z</time></trkpt>
<trkpt lat="63.805550000" lon="20.337131000"><ele>37.5</ele><time>2013-09-29T16:05:22Z</time></trkpt>
<trkpt lat="63.805502000" lon="20.336946000"><ele>37.5</ele><time>2013-09-29T16:05:27Z</time></trkpt>
<trkpt lat="63.805459000" lon="20.336699000"><ele>37.5</ele><time>2013-09-29T16:05:30Z</time></trkpt>
<trkpt lat="63.805440000" lon="20.336474000"><ele>37.4</ele><time>2013-09-29T16:05:33Z</time></trkpt>
<trkpt lat="63.805398000" lon="20.336270000"><ele>37.4</ele><time>2013-09-29T16:05:36Z</time></trkpt>
<trkpt lat="63.805356000" lon="20.336016000"><ele>37.4</ele><time>2013-09-29T16:05:39Z</time></trkpt>
<trkpt lat="63.805434000" lon="20.335823000"><ele>37.4</ele><time>2013-09-29T16:05:42Z</time></trkpt>
<trkpt lat="63.805534000" lon="20.335719000"><ele>37.4</ele><time>2013-09-29T16:05:45Z</time></trkpt>
<trkpt lat="63.805635000" lon="20.335624000"><ele>37.4</ele><time>2013-09-29T16:05:49Z</time></trkpt>
<trkpt lat="63.805734000" lon="20.335466000"><ele>37.3</ele><time>2013-09-29T16:05:53Z</time></trkpt>
<trkpt lat="63.805844000" lon="20.335338000"><ele>37.1</ele><time>2013-09-29T16:05:56Z</time></trkpt>
<trkpt lat="63.805917000" lon="20.335165000"><ele>36.9</ele><time>2013-09-29T16:05:59Z</time></trkpt>
<trkpt lat="63.805993000" lon="20.335049000"><ele>36.7</ele><time>2013-09-29T16:06:01Z</time></trkpt>
<trkpt lat="63.806104000" lon="20.334955000"><ele>36.6</ele><time>2013-09-29T16:06:03Z</time></trkpt>
<trkpt lat="63.806257000" lon="20.334923000"><ele>36.5</ele><time>2013-09-29T16:06:05Z</time></trkpt>
<trkpt lat="63.806347000" lon="20.334894000"><ele>36.3</ele><time>2013-09-29T16:06:06Z</time></trkpt>
<trkpt lat="63.806445000" lon="20.334865000"><ele>36.1</ele><time>2013-09-29T16:06:07Z</time></trkpt>
<trkpt lat="63.806531000" lon="20.334796000"><ele>35.9</ele><time>2013-09-29T16:06:08Z</time></trkpt>
<trkpt lat="63.806692000" lon="20.334688000"><ele>35.7</ele><time>2013-09-29T16:06:10Z</time></trkpt>
<trkpt lat="63.806798000" lon="20.334600000"><ele>35.5</ele><time>2013-09-29T16:06:12Z</time></trkpt>
<trkpt lat="63.806889000" lon="20.334553000"><ele>35.4</ele><time>2013-09-29T16:06:14Z</time></trkpt>
<trkpt lat="63.806995000" lon="20.334498000"><ele>35.3</ele><time>2013-09-29T16:06:16Z</time></trkpt>
<trkpt lat="63.807119000" lon="20.334444000"><ele>35.2</ele><time>2013-09-29T16:06:20Z</time></trkpt>
<trkpt lat="63.807238000" lon="20.334400000"><ele>35.1</ele><time>2013-09-29T16:06:23Z</time></trkpt>
<trkpt lat="63.807328000" lon="20.334388000"><ele>35.0</ele><time>2013-09-29T16:06:25Z</time></trkpt>
<trkpt lat="63.807432000" lon="20.334333000"><ele>35.0</ele><time>2013-09-29T16:06:28Z</time></trkpt>
<trkpt lat="63.807542000" lon="20.334317000"><ele>34.9</ele><time>2013-09-29T16:06:31Z</time></trkpt>
<trkpt lat="63.807631000" lon="20.334262000"><ele>34.8</ele><time>2013-09-29T16:06:34Z</time></trkpt>
<trkpt lat="63.807726000" lon="20.334150000"><ele>34.8</ele><time>2013-09-29T16:06:37Z</time></trkpt>
<trkpt lat="63.807814000" lon="20.334011000"><ele>34.8</ele><time>2013-09-29T16:06:40Z</time></trkpt>
<trkpt lat="63.807906000" lon="20.333826000"><ele>34.8</ele><time>2013-09-29T16:06:43Z</time></trkpt>
<trkpt lat="63.807982000" lon="20.333591000"><ele>34.8</ele><time>2013-09-29T16:06:46Z</time></trkpt>
<trkpt lat="63.808072000" lon="20.333387000"><ele>34.8</ele><time>2013-09-29T16:06:49Z</time></trkpt>
<trkpt lat="63.807967000" lon="20.333350000"><ele>34.7</ele><time>2013-09-29T16:07:00Z</time></trkpt>
<trkpt lat="63.807821000" lon="20.333367000"><ele>34.6</ele><time>2013-09-29T16:07:05Z</time></trkpt>
<trkpt lat="63.807706000" lon="20.333328000"><ele>34.5</ele><time>2013-09-29T16:07:09Z</time></trkpt>
<trkpt lat="63.807611000" lon="20.333225000"><ele>34.5</ele><time>2013-09-29T16:07:13Z</time></trkpt>
<trkpt lat="63.807509000" lon="20.333083000"><ele>34.6</ele><time>2013-09-29T16:07:17Z</time></trkpt>
<trkpt lat="63.807442000" lon="20.332940000"><ele>34.7</ele><time>2013-09-29T16:07:21Z</time></trkpt>
<trkpt lat="63.807337000" lon="20.332860000"><ele>34.7</ele><time>2013-09-29T16:07:25Z</time></trkpt>
<trkpt lat="63.807168000" lon="20.332693000"><ele>34.7</ele><time>2013-09-29T16:07:34Z</time></trkpt>
<trkpt lat="63.807067000" lon="20.332668000"><ele>34.7</ele><time>2013-09-29T16:07:41Z</time></trkpt>
<trkpt lat="63.806977000" lon="20.332761000"><ele>34.7</ele><time>2013-09-29T16:07:46Z</time></trkpt>
<trkpt lat="63.806873000" lon="20.332865000"><ele>34.7</ele><time>2013-09-29T16:07:51Z</time></trkpt>
<trkpt lat="63.806746000" lon="20.333026000"><ele>34.9</ele><time>2013-09-29T16:07:54Z</time></trkpt>
<trkpt lat="63.806668000" lon="20.333174000"><ele>35.1</ele><time>2013-09-29T16:07:56Z</time></trkpt>
<trkpt lat="63.806582000" lon="20.333304000"><ele>35.3</ele><time>2013-09-29T16:07:58Z</time></trkpt>
<trkpt lat="63.806478000" lon="20.333398000"><ele>35.4</ele><time>2013-09-29T16:08:00Z</time></trkpt>
<trkpt lat="63.806364000" lon="20.333466000"><ele>35.5</ele><time>2013-09-29T16:08:03Z</time></trkpt>
<trkpt lat="63.806189000" lon="20.333464000"><ele>35.5</ele><time>2013-09-29T16:08:09Z</time></trkpt>
<trkpt lat="63.806073000" lon="20.333444000"><ele>35.6</ele><time>2013-09-29T16:08:13Z</time></trkpt>
<trkpt lat="63.805983000" lon="20.333404000"><ele>35.8</ele><time>2013-09-29T16:08:16Z</time></trkpt>
<trkpt lat="63.805876000" lon="20.333376000"><ele>36.0</ele><time>2013-09-29T16:08:19Z</time></trkpt>
<trkpt lat="63.805752000" lon="20.333382000"><ele>36.2</ele><time>2013-09-29T16:08:22Z</time></trkpt>
<trkpt lat="63.805622000" lon="20.333401000"><ele>36.4</ele><time>2013-09-29T16:08:25Z</time></trkpt>
<trkpt lat="63.805472000" lon="20.333538000"><ele>36.5</ele><time>2013-09-29T16:08:30Z</time></trkpt>
<trkpt lat="63.805384000" lon="20.333607000"><ele>36.5</ele><time>2013-09-29T16:08:33Z</time></trkpt>
<trkpt lat="63.805295000" lon="20.333657000"><ele>36.6</ele><time>2013-09-29T16:08:36Z</time></trkpt>
<trkpt lat="63.805186000" lon="20.333816000"><ele>36.8</ele><time>2013-09-29T16:08:40Z</time></trkpt>
<trkpt lat="63.805095000" lon="20.333879000"><ele>37.0</ele><time>2013-09-29T16:08:44Z</time></trkpt>
<trkpt lat="63.804939000" lon="20.334009000"><ele>37.2</ele><time>2013-09-29T16:08:50Z</time></trkpt>
<trkpt lat="63.804782000" lon="20.334130000"><ele>37.5</ele><time>2013-09-29T16:08:56Z</time></trkpt>
<trkpt lat="63.804681000" lon="20.334221000"><ele>37.6</ele><time>2013-09-29T16:09:00Z</time></trkpt>
<trkpt lat="63.804561000" lon="20.334323000"><ele>37.8</ele><time>2013-09-29T16:09:03Z</time></trkpt>
<trkpt lat="63.804447000" lon="20.334443000"><ele>38.0</ele><time>2013-09-29T16:09:06Z</time></trkpt>
<trkpt lat="63.804346000" lon="20.334584000"><ele>38.2</ele><time>2013-09-29T16:09:09Z</time></trkpt>
<trkpt lat="63.804244000" lon="20.334714000"><ele>38.4</ele><time>2013-09-29T16:09:12Z</time></trkpt>
<trkpt lat="63.804161000" lon="20.334808000"><ele>38.5</ele><time>2013-09-29T16:09:15Z</time></trkpt>
<trkpt lat="63.804063000" lon="20.334906000"><ele>38.7</ele><time>2013-09-29T16:09:19Z</time></trkpt>
<trkpt lat="63.803903000" lon="20.335058000"><ele>38.8</ele><time>2013-09-29T16:09:25Z</time></trkpt>
<trkpt lat="63.803804000" lon="20.335126000"><ele>38.9</ele><time>2013-09-29T16:09:28Z</time></trkpt>
<trkpt lat="63.803703000" lon="20.335235000"><ele>39.0</ele><time>2013-09-29T16:09:31Z</time></trkpt>
<trkpt lat="63.803610000" lon="20.335298000"><ele>39.0</ele><time>2013-09-29T16:09:34Z</time></trkpt>
<trkpt lat="63.803495000" lon="20.335335000"><ele>39.0</ele><time>2013-09-29T16:09:38Z</time></trkpt>
<trkpt lat="63.803399000" lon="20.335364000"><ele>39.1</ele><time>2013-09-29T16:09:41Z</time></trkpt>
<trkpt lat="63.803337000" lon="20.335537000"><ele>39.2</ele><time>2013-09-29T16:09:44Z</time></trkpt>
<trkpt lat="63.803241000" lon="20.335645000"><ele>39.3</ele><time>2013-09-29T16:09:47Z</time></trkpt>
<trkpt lat="63.803108000" lon="20.335744000"><ele>39.4</ele><time>2013-09-29T16:09:51Z</time></trkpt>
<trkpt lat="63.803009000" lon="20.335824000"><ele>39.5</ele><time>2013-09-29T16:09:54Z</time></trkpt>
<trkpt lat="63.802889000" lon="20.335964000"><ele>39.5</ele><time>2013-09-29T16:09:58Z</time></trkpt>
<trkpt lat="63.802710000" lon="20.336176000"><ele>39.6</ele><time>2013-09-29T16:10:06Z</time></trkpt>
<trkpt lat="63.802546000" lon="20.336364000"><ele>39.7</ele><time>2013-09-29T16:10:12Z</time></trkpt>
<trkpt lat="63.802445000" lon="20.336421000"><ele>39.8</ele><time>2013-09-29T16:10:16Z</time></trkpt>
<trkpt lat="63.802316000" lon="20.336559000"><ele>39.9</ele><time>2013-09-29T16:10:23Z</time></trkpt>
<trkpt lat="63.802228000" lon="20.336636000"><ele>40.0</ele><time>2013-09-29T16:10:27Z</time></trkpt>
<trkpt lat="63.802136000" lon="20.336704000"><ele>40.0</ele><time>2013-09-29T16:10:30Z</time></trkpt>
<trkpt lat="63.802046000" lon="20.336730000"><ele>40.0</ele><time>2013-09-29T16:10:33Z</time></trkpt>
<trkpt lat="63.801954000" lon="20.336785000"><ele>40.0</ele><time>2013-09-29T16:10:37Z</time></trkpt>
<trkpt lat="63.801771000" lon="20.336906000"><ele>40.0</ele><time>2013-09-29T16:10:46Z</time></trkpt>
<trkpt lat="63.801678000" lon="20.337021000"><ele>40.0</ele><time>2013-09-29T16:10:49Z</time></trkpt>
<trkpt lat="63.801562000" lon="20.337208000"><ele>40.0</ele><time>2013-09-29T16:10:52Z</time></trkpt>
<trkpt lat="63.801442000" lon="20.337402000"><ele>40.0</ele><time>2013-09-29T16:10:55Z</time></trkpt>
<trkpt lat="63.801353000" lon="20.337600000"><ele>40.0</ele><time>2013-09-29T16:10:58Z</time></trkpt>
<trkpt lat="63.801190000" lon="20.337715000"><ele>40.0</ele><time>2013-09-29T16:11:05Z</time></trkpt>
<trkpt lat="63.801078000" lon="20.337655000"><ele>40.0</ele><time>2013-09-29T16:11:09Z</time></trkpt>
<trkpt lat="63.800975000" lon="20.337584000"><ele>40.0</ele><time>2013-09-29T16:11:13Z</time></trkpt>
<trkpt lat="63.800877000" lon="20.337500000"><ele>40.0</ele><time>2013-09-29T16:11:17Z</time></trkpt>
<trkpt lat="63.800796000" lon="20.337402000"><ele>40.0</ele><time>2013-09-29T16:11:21Z</time></trkpt>
<trkpt lat="63.800687000" lon="20.337319000"><ele>40.0</ele><time>2013-09-29T16:11:26Z</time></trkpt>
<trkpt lat="63.800593000" lon="20.337175000"><ele>40.0</ele><time>2013-09-29T16:11:31Z</time></trkpt>
<trkpt lat="63.800488000" lon="20.337098000"><ele>40.0</ele><time>2013-09-29T16:11:36Z</time></trkpt>
<trkpt lat="63.800394000" lon="20.337016000"><ele>40.0</ele><time>2013-09-29T16:11:41Z</time></trkpt>
<trkpt lat="63.800285000" lon="20.336946000"><ele>40.0</ele><time>2013-09-29T16:11:45Z</time></trkpt>
<trkpt lat="63.800196000" lon="20.336912000"><ele>40.0</ele><time>2013-09-29T16:11:48Z</time></trkpt>
<trkpt lat="63.800086000" lon="20.336879000"><ele>40.0</ele><time>2013-09-29T16:11:52Z</time></trkpt>
<trkpt lat="63.799994000" lon="20.336841000"><ele>40.0</ele><time>2013-09-29T16:11:57Z</time></trkpt>
<trkpt lat="63.799889000" lon="20.336770000"><ele>40.0</ele><time>2013-09-29T16:12:02Z</time></trkpt>
<trkpt lat="63.799806000" lon="20.336704000"><ele>40.0</ele><time>2013-09-29T16:12:07Z</time></trkpt>
</trkseg>
<trkseg>
<trkpt lat="63.799667000" lon="20.336688000"><ele>40.0</ele><time>2013-09-29T16:12:55Z</time></trkpt>
<trkpt lat="63.799577000" lon="20.336616000"><ele>40.0</ele><time>2013-09-29T16:13:01Z</time></trkpt>
<trkpt lat="63.799489000" lon="20.336559000"><ele>40.0</ele><time>2013-09-29T16:13:06Z</time></trkpt>
<trkpt lat="63.799382000" lon="20.336486000"><ele>40.0</ele><time>2013-09-29T16:13:11Z</time></trkpt>
<trkpt lat="63.799285000" lon="20.336429000"><ele>40.0</ele><time>2013-09-29T16:13:15Z</time></trkpt>
<trkpt lat="63.799193000" lon="20.336322000"><ele>40.1</ele><time>2013-09-29T16:13:20Z</time></trkpt>
<trkpt lat="63.799096000" lon="20.336275000"><ele>40.2</ele><time>2013-09-29T16:13:24Z</time></trkpt>
<trkpt lat="63.799002000" lon="20.336156000"><ele>40.3</ele><time>2013-09-29T16:13:28Z</time></trkpt>
<trkpt lat="63.798902000" lon="20.336034000"><ele>40.4</ele><time>2013-09-29T16:13:32Z</time></trkpt>
<trkpt lat="63.798830000" lon="20.335896000"><ele>40.4</ele><time>2013-09-29T16:13:36Z</time></trkpt>
<trkpt lat="63.798741000" lon="20.335844000"><ele>40.4</ele><time>2013-09-29T16:13:39Z</time></trkpt>
<trkpt lat="63.798640000" lon="20.335706000"><ele>40.4</ele><time>2013-09-29T16:13:43Z</time></trkpt>
<trkpt lat="63.798552000" lon="20.335620000"><ele>40.4</ele><time>2013-09-29T16:13:46Z</time></trkpt>
<trkpt lat="63.798467000" lon="20.335513000"><ele>40.5</ele><time>2013-09-29T16:13:49Z</time></trkpt>
<trkpt lat="63.798390000" lon="20.335407000"><ele>40.5</ele><time>2013-09-29T16:13:53Z</time></trkpt>
<trkpt lat="63.798314000" lon="20.335240000"><ele>40.6</ele><time>2013-09-29T16:13:57Z</time></trkpt>
<trkpt lat="63.798204000" lon="20.335163000"><ele>40.6</ele><time>2013-09-29T16:14:01Z</time></trkpt>
<trkpt lat="63.798080000" lon="20.335134000"><ele>40.6</ele><time>2013-09-29T16:14:04Z</time></trkpt>
<trkpt lat="63.797964000" lon="20.335085000"><ele>40.6</ele><time>2013-09-29T16:14:07Z</time></trkpt>
<trkpt lat="63.797848000" lon="20.335090000"><ele>40.6</ele><time>2013-09-29T16:14:10Z</time></trkpt>
<trkpt lat="63.797741000" lon="20.335087000"><ele>40.7</ele><time>2013-09-29T16:14:13Z</time></trkpt>
<trkpt lat="63.797631000" lon="20.335018000"><ele>40.8</ele><time>2013-09-29T16:14:16Z</time></trkpt>
<trkpt lat="63.797533000" lon="20.334974000"><ele>40.9</ele><time>2013-09-29T16:14:18Z</time></trkpt>
<trkpt lat="63.797417000" lon="20.334917000"><ele>40.9</ele><time>2013-09-29T16:14:21Z</time></trkpt>
<trkpt lat="63.797302000" lon="20.334878000"><ele>40.8</ele><time>2013-09-29T16:14:24Z</time></trkpt>
<trkpt lat="63.797177000" lon="20.334823000"><ele>40.7</ele><time>2013-09-29T16:14:27Z</time></trkpt>
<trkpt lat="63.797049000" lon="20.334765000"><ele>40.6</ele><time>2013-09-29T16:14:30Z</time></trkpt>
<trkpt lat="63.796930000" lon="20.334668000"><ele>40.5</ele><time>2013-09-29T16:14:33Z</time></trkpt>
<trkpt lat="63.796818000" lon="20.334611000"><ele>40.5</ele><time>2013-09-29T16:14:37Z</time></trkpt>
<trkpt lat="63.796708000" lon="20.334578000"><ele>40.4</ele><time>2013-09-29T16:14:40Z</time></trkpt>
<trkpt lat="63.796623000" lon="20.334503000"><ele>40.3</ele><time>2013-09-29T16:14:42Z</time></trkpt>
<trkpt lat="63.796513000" lon="20.334412000"><ele>40.2</ele><time>2013-09-29T16:14:45Z</time></trkpt>
<trkpt lat="63.796399000" lon="20.334341000"><ele>40.1</ele><time>2013-09-29T16:14:48Z</time></trkpt>
<trkpt lat="63.796306000" lon="20.334334000"><ele>40.0</ele><time>2013-09-29T16:14:51Z</time></trkpt>
<trkpt lat="63.796186000" lon="20.334253000"><ele>40.0</ele><time>2013-09-29T16:14:54Z</time></trkpt>
<trkpt lat="63.796089000" lon="20.334222000"><ele>40.0</ele><time>2013-09-29T16:14:57Z</time></trkpt>
<trkpt lat="63.795972000" lon="20.334220000"><ele>40.0</ele><time>2013-09-29T16:15:00Z</time></trkpt>
<trkpt lat="63.795880000" lon="20.334245000"><ele>40.0</ele><time>2013-09-29T16:15:02Z</time></trkpt>
<trkpt lat="63.795763000" lon="20.334302000"><ele>40.0</ele><time>2013-09-29T16:15:05Z</time></trkpt>
<trkpt lat="63.795672000" lon="20.334295000"><ele>40.0</ele><time>2013-09-29T16:15:08Z</time></trkpt>
<trkpt lat="63.795550000" lon="20.334363000"><ele>40.0</ele><time>2013-09-29T16:15:12Z</time></trkpt>
<trkpt lat="63.795438000" lon="20.334425000"><ele>40.1</ele><time>2013-09-29T16:15:15Z</time></trkpt>
<trkpt lat="63.795302000" lon="20.334454000"><ele>40.2</ele><time>2013-09-29T16:15:18Z</time></trkpt>
<trkpt lat="63.795199000" lon="20.334535000"><ele>40.3</ele><time>2013-09-29T16:15:21Z</time></trkpt>
<trkpt lat="63.795097000" lon="20.334601000"><ele>40.4</ele><time>2013-09-29T16:15:25Z</time></trkpt>
<trkpt lat="63.794994000" lon="20.334644000"><ele>40.5</ele><time>2013-09-29T16:15:29Z</time></trkpt>
<trkpt lat="63.794907000" lon="20.334738000"><ele>40.5</ele><time>2013-09-29T16:15:32Z</time></trkpt>
<trkpt lat="63.794812000" lon="20.334827000"><ele>40.6</ele><time>2013-09-29T16:15:36Z</time></trkpt>
<trkpt lat="63.794734000" lon="20.334941000"><ele>40.7</ele><time>2013-09-29T16:15:40Z</time></trkpt>
<trkpt lat="63.794638000" lon="20.335023000"><ele>40.8</ele><time>2013-09-29T16:15:45Z</time></trkpt>
<trkpt lat="63.794539000" lon="20.335124000"><ele>40.9</ele><time>2013-09-29T16:15:51Z</time></trkpt>
<trkpt lat="63.794451000" lon="20.335197000"><ele>41.0</ele><time>2013-09-29T16:15:55Z</time></trkpt>
<trkpt lat="63.794360000" lon="20.335270000"><ele>41.0</ele><time>2013-09-29T16:15:59Z</time></trkpt>
<trkpt lat="63.794238000" lon="20.335328000"><ele>41.0</ele><time>2013-09-29T16:16:04Z</time></trkpt>
<trkpt lat="63.794125000" lon="20.335301000"><ele>41.0</ele><time>2013-09-29T16:16:08Z</time></trkpt>
<trkpt lat="63.794003000" lon="20.335411000"><ele>41.0</ele><time>2013-09-29T16:16:13Z</time></trkpt>
<trkpt lat="63.793904000" lon="20.335533000"><ele>41.0</ele><time>2013-09-29T16:16:16Z</time></trkpt>
<trkpt lat="63.793817000" lon="20.335603000"><ele>41.0</ele><time>2013-09-29T16:16:19Z</time></trkpt>
<trkpt lat="63.793727000" lon="20.335672000"><ele>41.0</ele><time>2013-09-29T16:16:23Z</time></trkpt>
<trkpt lat="63.793611000" lon="20.335691000"><ele>41.0</ele><time>2013-09-29T16:16:27Z</time></trkpt>
<trkpt lat="63.793504000" lon="20.335651000"><ele>41.0</ele><time>2013-09-29T16:16:31Z</time></trkpt>
<trkpt lat="63.793414000" lon="20.335618000"><ele>41.0</ele><time>2013-09-29T16:16:34Z</time></trkpt>
<trkpt lat="63.793323000" lon="20.335496000"><ele>41.0</ele><time>2013-09-29T16:16:39Z</time></trkpt>
<trkpt lat="63.793244000" lon="20.335387000"><ele>41.0</ele><time>2013-09-29T16:16:43Z</time></trkpt>
<trkpt lat="63.793148000" lon="20.335273000"><ele>41.0</ele><time>2013-09-29T16:16:47Z</time></trkpt>
<trkpt lat="63.793047000" lon="20.335267000"><ele>41.0</ele><time>2013-09-29T16:16:50Z</time></trkpt>
<trkpt lat="63.792939000" lon="20.335218000"><ele>41.0</ele><time>2013-09-29T16:16:54Z</time></trkpt>
<trkpt lat="63.792842000" lon="20.335088000"><ele>41.0</ele><time>2013-09-29T16:16:58Z</time></trkpt>
<trkpt lat="63.792725000" lon="20.335103000"><ele>41.0</ele><time>2013-09-29T16:17:01Z</time></trkpt>
<trkpt lat="63.792611000" lon="20.335141000"><ele>41.0</ele><time>2013-09-29T16:17:04Z</time></trkpt>
<trkpt lat="63.792507000" lon="20.335055000"><ele>41.0</ele><time>2013-09-29T16:17:07Z</time></trkpt>
<trkpt lat="63.792396000" lon="20.334955000"><ele>41.0</ele><time>2013-09-29T16:17:10Z</time></trkpt>
<trkpt lat="63.792295000" lon="20.334892000"><ele>41.0</ele><time>2013-09-29T16:17:13Z</time></trkpt>
<trkpt lat="63.792186000" lon="20.334803000"><ele>41.0</ele><time>2013-09-29T16:17:17Z</time></trkpt>
<trkpt lat="63.792078000" lon="20.334707000"><ele>41.0</ele><time>2013-09-29T16:17:21Z</time></trkpt>
<trkpt lat="63.791969000" lon="20.334596000"><ele>41.0</ele><time>2013-09-29T16:17:24Z</time></trkpt>
<trkpt lat="63.791885000" lon="20.334462000"><ele>41.0</ele><time>2013-09-29T16:17:28Z</time></trkpt>
<trkpt lat="63.791793000" lon="20.334301000"><ele>41.0</ele><time>2013-09-29T16:17:32Z</time></trkpt>
<trkpt lat="63.791704000" lon="20.334188000"><ele>41.0</ele><time>2013-09-29T16:17:35Z</time></trkpt>
<trkpt lat="63.791620000" lon="20.334065000"><ele>41.0</ele><time>2013-09-29T16:17:38Z</time></trkpt>
<trkpt lat="63.791536000" lon="20.333910000"><ele>41.0</ele><time>2013-09-29T16:17:42Z</time></trkpt>
<trkpt lat="63.791472000" lon="20.333726000"><ele>41.0</ele><time>2013-09-29T16:17:46Z</time></trkpt>
<trkpt lat="63.791391000" lon="20.333589000"><ele>41.0</ele><time>2013-09-29T16:17:50Z</time></trkpt>
<trkpt lat="63.791309000" lon="20.333453000"><ele>41.0</ele><time>2013-09-29T16:17:55Z</time></trkpt>
<trkpt lat="63.791217000" lon="20.333317000"><ele>41.0</ele><time>2013-09-29T16:17:59Z</time></trkpt>
<trkpt lat="63.791148000" lon="20.333164000"><ele>41.0</ele><time>2013-09-29T16:18:02Z</time></trkpt>
<trkpt lat="63.791063000" lon="20.333050000"><ele>41.0</ele><time>2013-09-29T16:18:05Z</time></trkpt>
<trkpt lat="63.790957000" lon="20.333007000"><ele>41.1</ele><time>2013-09-29T16:18:08Z</time></trkpt>
<trkpt lat="63.790834000" lon="20.332999000"><ele>41.2</ele><time>2013-09-29T16:18:11Z</time></trkpt>
<trkpt lat="63.790721000" lon="20.333013000"><ele>41.3</ele><time>2013-09-29T16:18:14Z</time></trkpt>
<trkpt lat="63.790598000" lon="20.333007000"><ele>41.4</ele><time>2013-09-29T16:18:17Z</time></trkpt>
<trkpt lat="63.790485000" lon="20.333031000"><ele>41.5</ele><time>2013-09-29T16:18:20Z</time></trkpt>
<trkpt lat="63.790371000" lon="20.332942000"><ele>41.5</ele><time>2013-09-29T16:18:24Z</time></trkpt>
<trkpt lat="63.790257000" lon="20.332909000"><ele>41.6</ele><time>2013-09-29T16:18:27Z</time></trkpt>
<trkpt lat="63.790141000" lon="20.332843000"><ele>41.7</ele><time>2013-09-29T16:18:30Z</time></trkpt>
<trkpt lat="63.790028000" lon="20.332709000"><ele>41.9</ele><time>2013-09-29T16:18:33Z</time></trkpt>
<trkpt lat="63.789913000" lon="20.332541000"><ele>42.1</ele><time>2013-09-29T16:18:36Z</time></trkpt>
<trkpt lat="63.789802000" lon="20.332366000"><ele>42.3</ele><time>2013-09-29T16:18:39Z</time></trkpt>
<trkpt lat="63.789727000" lon="20.332232000"><ele>42.4</ele><time>2013-09-29T16:18:41Z</time></trkpt>
<trkpt lat="63.789648000" lon="20.332134000"><ele>42.5</ele><time>2013-09-29T16:18:43Z</time></trkpt>
<trkpt lat="63.789514000" lon="20.332066000"><ele>42.5</ele><time>2013-09-29T16:18:46Z</time></trkpt>
<trkpt lat="63.789397000" lon="20.332006000"><ele>42.6</ele><time>2013-09-29T16:18:49Z</time></trkpt>
<trkpt lat="63.789301000" lon="20.331962000"><ele>42.7</ele><time>2013-09-29T16:18:51Z</time></trkpt>
<trkpt lat="63.789205000" lon="20.331929000"><ele>42.8</ele><time>2013-09-29T16:18:53Z</time></trkpt>
<trkpt lat="63.789078000" lon="20.331907000"><ele>42.9</ele><time>2013-09-29T16:18:56Z</time></trkpt>
<trkpt lat="63.788983000" lon="20.331892000"><ele>43.0</ele><time>2013-09-29T16:18:58Z</time></trkpt>
<trkpt lat="63.788850000" lon="20.331839000"><ele>43.0</ele><time>2013-09-29T16:19:01Z</time></trkpt>
<trkpt lat="63.788731000" lon="20.331779000"><ele>43.0</ele><time>2013-09-29T16:19:04Z</time></trkpt>
<trkpt lat="63.788628000" lon="20.331770000"><ele>43.0</ele><time>2013-09-29T16:19:07Z</time></trkpt>
<trkpt lat="63.788534000" lon="20.331726000"><ele>43.0</ele><time>2013-09-29T16:19:10Z</time></trkpt>
<trkpt lat="63.788438000" lon="20.331679000"><ele>43.1</ele><time>2013-09-29T16:19:13Z</time></trkpt>
<trkpt lat="63.788336000" lon="20.331591000"><ele>43.2</ele><time>2013-09-29T16:19:17Z</time></trkpt>
<trkpt lat="63.788252000" lon="20.331489000"><ele>43.3</ele><time>2013-09-29T16:19:21Z</time></trkpt>
<trkpt lat="63.788164000" lon="20.331330000"><ele>43.4</ele><time>2013-09-29T16:19:25Z</time></trkpt>
<trkpt lat="63.788054000" lon="20.331238000"><ele>43.5</ele><time>2013-09-29T16:19:28Z</time></trkpt>
<trkpt lat="63.787952000" lon="20.331150000"><ele>43.5</ele><time>2013-09-29T16:19:31Z</time></trkpt>
<trkpt lat="63.787851000" lon="20.331092000"><ele>43.6</ele><time>2013-09-29T16:19:34Z</time></trkpt>
<trkpt lat="63.787736000" lon="20.331066000"><ele>43.7</ele><time>2013-09-29T16:19:38Z</time></trkpt>
<trkpt lat="63.787637000" lon="20.331052000"><ele>43.8</ele><time>2013-09-29T16:19:41Z</time></trkpt>
<trkpt lat="63.787518000" lon="20.331115000"><ele>44.0</ele><time>2013-09-29T16:19:45Z</time></trkpt>
<trkpt lat="63.787415000" lon="20.331122000"><ele>44.2</ele><time>2013-09-29T16:19:48Z</time></trkpt>
<trkpt lat="63.787309000" lon="20.331119000"><ele>44.3</ele><time>2013-09-29T16:19:52Z</time></trkpt>
<trkpt lat="63.787216000" lon="20.331073000"><ele>44.4</ele><time>2013-09-29T16:19:55Z</time></trkpt>
<trkpt lat="63.787107000" lon="20.331114000"><ele>44.5</ele><time>2013-09-29T16:19:58Z</time></trkpt>
<trkpt lat="63.786987000" lon="20.331161000"><ele>44.5</ele><time>2013-09-29T16:20:01Z</time></trkpt>
<trkpt lat="63.786894000" lon="20.331193000"><ele>44.6</ele><time>2013-09-29T16:20:04Z</time></trkpt>
<trkpt lat="63.786812000" lon="20.331109000"><ele>44.7</ele><time>2013-09-29T16:20:07Z</time></trkpt>
<trkpt lat="63.786712000" lon="20.331066000"><ele>45.0</ele><time>2013-09-29T16:20:10Z</time></trkpt>
<trkpt lat="63.786624000" lon="20.330963000"><ele>45.3</ele><time>2013-09-29T16:20:14Z</time></trkpt>
<trkpt lat="63.786528000" lon="20.330885000"><ele>45.5</ele><time>2013-09-29T16:20:18Z</time></trkpt>
<trkpt lat="63.786429000" lon="20.330941000"><ele>45.7</ele><time>2013-09-29T16:20:21Z</time></trkpt>
<trkpt lat="63.786329000" lon="20.331019000"><ele>45.9</ele><time>2013-09-29T16:20:24Z</time></trkpt>
<trkpt lat="63.786229000" lon="20.331015000"><ele>46.1</ele><time>2013-09-29T16:20:28Z</time></trkpt>
<trkpt lat="63.786137000" lon="20.330988000"><ele>46.3</ele><time>2013-09-29T16:20:31Z</time></trkpt>
<trkpt lat="63.786044000" lon="20.330999000"><ele>46.5</ele><time>2013-09-29T16:20:34Z</time></trkpt>
<trkpt lat="63.785956000" lon="20.331070000"><ele>46.6</ele><time>2013-09-29T16:20:38Z</time></trkpt>
<trkpt lat="63.785877000" lon="20.331166000"><ele>46.9</ele><time>2013-09-29T16:20:41Z</time></trkpt>
<trkpt lat="63.785775000" lon="20.331119000"><ele>47.2</ele><time>2013-09-29T16:20:46Z</time></trkpt>
<trkpt lat="63.785692000" lon="20.331040000"><ele>47.4</ele><time>2013-09-29T16:20:49Z</time></trkpt>
<trkpt lat="63.785585000" lon="20.331109000"><ele>47.5</ele><time>2013-09-29T16:20:53Z</time></trkpt>
<trkpt lat="63.785497000" lon="20.331200000"><ele>47.7</ele><time>2013-09-29T16:20:57Z</time></trkpt>
<trkpt lat="63.785378000" lon="20.331227000"><ele>47.9</ele><time>2013-09-29T16:21:01Z</time></trkpt>
<trkpt lat="63.785271000" lon="20.331266000"><ele>48.1</ele><time>2013-09-29T16:21:04Z</time></trkpt>
<trkpt lat="63.785161000" lon="20.331376000"><ele>48.3</ele><time>2013-09-29T16:21:08Z</time></trkpt>
<trkpt lat="63.785056000" lon="20.331361000"><ele>48.5</ele><time>2013-09-29T16:21:12Z</time></trkpt>
<trkpt lat="63.784965000" lon="20.331413000"><ele>48.7</ele><time>2013-09-29T16:21:16Z</time></trkpt>
<trkpt lat="63.784889000" lon="20.331540000"><ele>49.0</ele><time>2013-09-29T16:21:19Z</time></trkpt>
<trkpt lat="63.784806000" lon="20.331738000"><ele>49.2</ele><time>2013-09-29T16:21:22Z</time></trkpt>
<trkpt lat="63.784727000" lon="20.331841000"><ele>49.4</ele><time>2013-09-29T16:21:25Z</time></trkpt>
<trkpt lat="63.784653000" lon="20.331973000"><ele>49.5</ele><time>2013-09-29T16:21:28Z</time></trkpt>
<trkpt lat="63.784550000" lon="20.332084000"><ele>49.5</ele><time>2013-09-29T16:21:32Z</time></trkpt>
<trkpt lat="63.784457000" lon="20.332158000"><ele>49.6</ele><time>2013-09-29T16:21:36Z</time></trkpt>
<trkpt lat="63.784371000" lon="20.332087000"><ele>49.7</ele><time>2013-09-29T16:21:41Z</time></trkpt>
<trkpt lat="63.784259000" lon="20.332108000"><ele>49.8</ele><time>2013-09-29T16:21:45Z</time></trkpt>
<trkpt lat="63.784170000" lon="20.332147000"><ele>49.9</ele><time>2013-09-29T16:21:49Z</time></trkpt>
<trkpt lat="63.784073000" lon="20.332187000"><ele>50.0</ele><time>2013-09-29T16:21:55Z</time></trkpt>
<trkpt lat="63.783974000" lon="20.332293000"><ele>50.0</ele><time>2013-09-29T16:22:00Z</time></trkpt>
<trkpt lat="63.783885000" lon="20.332412000"><ele>49.9</ele><time>2013-09-29T16:22:04Z</time></trkpt>
<trkpt lat="63.783836000" lon="20.332632000"><ele>49.8</ele><time>2013-09-29T16:22:08Z</time></trkpt>
<trkpt lat="63.783778000" lon="20.332803000"><ele>49.7</ele><time>2013-09-29T16:22:13Z</time></trkpt>
<trkpt lat="63.783677000" lon="20.332839000"><ele>49.6</ele><time>2013-09-29T16:22:18Z</time></trkpt>
<trkpt lat="63.783574000" lon="20.332907000"><ele>49.5</ele><time>2013-09-29T16:22:22Z</time></trkpt>
<trkpt lat="63.783486000" lon="20.333042000"><ele>49.5</ele><time>2013-09-29T16:22:26Z</time></trkpt>
<trkpt lat="63.783429000" lon="20.333209000"><ele>49.4</ele><time>2013-09-29T16:22:29Z</time></trkpt>
<trkpt lat="63.783359000" lon="20.333387000"><ele>49.3</ele><time>2013-09-29T16:22:33Z</time></trkpt>
<trkpt lat="63.783253000" lon="20.333374000"><ele>49.2</ele><time>2013-09-29T16:22:37Z</time></trkpt>
<trkpt lat="63.783153000" lon="20.333294000"><ele>49.1</ele><time>2013-09-29T16:22:41Z</time></trkpt>
<trkpt lat="63.783071000" lon="20.333194000"><ele>49.0</ele><time>2013-09-29T16:22:45Z</time></trkpt>
<trkpt lat="63.782981000" lon="20.333072000"><ele>49.0</ele><time>2013-09-29T16:22:48Z</time></trkpt>
<trkpt lat="63.782882000" lon="20.332975000"><ele>49.0</ele><time>2013-09-29T16:22:51Z</time></trkpt>
<trkpt lat="63.782761000" lon="20.332865000"><ele>49.0</ele><time>2013-09-29T16:22:54Z</time></trkpt>
<trkpt lat="63.782675000" lon="20.332793000"><ele>49.0</ele><time>2013-09-29T16:22:56Z</time></trkpt>
<trkpt lat="63.782573000" lon="20.332752000"><ele>48.8</ele><time>2013-09-29T16:22:58Z</time></trkpt>
<trkpt lat="63.782486000" lon="20.332702000"><ele>48.6</ele><time>2013-09-29T16:23:00Z</time></trkpt>
<trkpt lat="63.782385000" lon="20.332624000"><ele>48.5</ele><time>2013-09-29T16:23:03Z</time></trkpt>
<trkpt lat="63.782276000" lon="20.332530000"><ele>48.3</ele><time>2013-09-29T16:23:06Z</time></trkpt>
<trkpt lat="63.782166000" lon="20.332450000"><ele>48.1</ele><time>2013-09-29T16:23:09Z</time></trkpt>
<trkpt lat="63.782070000" lon="20.332489000"><ele>47.9</ele><time>2013-09-29T16:23:11Z</time></trkpt>
<trkpt lat="63.781977000" lon="20.332353000"><ele>47.7</ele><time>2013-09-29T16:23:15Z</time></trkpt>
<trkpt lat="63.781876000" lon="20.332247000"><ele>47.5</ele><time>2013-09-29T16:23:19Z</time></trkpt>
<trkpt lat="63.781762000" lon="20.332146000"><ele>47.4</ele><time>2013-09-29T16:23:23Z</time></trkpt>
<trkpt lat="63.781678000" lon="20.332045000"><ele>46.9</ele><time>2013-09-29T16:23:26Z</time></trkpt>
<trkpt lat="63.781581000" lon="20.332041000"><ele>46.5</ele><time>2013-09-29T16:23:29Z</time></trkpt>
<trkpt lat="63.781490000" lon="20.332082000"><ele>46.2</ele><time>2013-09-29T16:23:32Z</time></trkpt>
<trkpt lat="63.781372000" lon="20.332073000"><ele>45.9</ele><time>2013-09-29T16:23:36Z</time></trkpt>
<trkpt lat="63.781293000" lon="20.331961000"><ele>45.6</ele><time>2013-09-29T16:23:40Z</time></trkpt>
<trkpt lat="63.781192000" lon="20.332065000"><ele>45.4</ele><time>2013-09-29T16:23:43Z</time></trkpt>
<trkpt lat="63.781108000" lon="20.332141000"><ele>45.1</ele><time>2013-09-29T16:23:47Z</time></trkpt>
<trkpt lat="63.781007000" lon="20.332107000"><ele>44.8</ele><time>2013-09-29T16:23:51Z</time></trkpt>
<trkpt lat="63.780900000" lon="20.332046000"><ele>44.3</ele><time>2013-09-29T16:23:55Z</time></trkpt>
<trkpt lat="63.780799000" lon="20.332000000"><ele>43.7</ele><time>2013-09-29T16:23:58Z</time></trkpt>
<trkpt lat="63.780702000" lon="20.331936000"><ele>43.2</ele><time>2013-09-29T16:24:02Z</time></trkpt>
<trkpt lat="63.780610000" lon="20.331893000"><ele>43.0</ele><time>2013-09-29T16:24:06Z</time></trkpt>
<trkpt lat="63.780516000" lon="20.331900000"><ele>42.8</ele><time>2013-09-29T16:24:09Z</time></trkpt>
<trkpt lat="63.780419000" lon="20.331921000"><ele>42.6</ele><time>2013-09-29T16:24:12Z</time></trkpt>
<trkpt lat="63.780322000" lon="20.332000000"><ele>42.5</ele><time>2013-09-29T16:24:15Z</time></trkpt>
<trkpt lat="63.780232000" lon="20.332106000"><ele>42.3</ele><time>2013-09-29T16:24:18Z</time></trkpt>
<trkpt lat="63.780129000" lon="20.332203000"><ele>42.1</ele><time>2013-09-29T16:24:22Z</time></trkpt>
<trkpt lat="63.780046000" lon="20.332335000"><ele>41.7</ele><time>2013-09-29T16:24:25Z</time></trkpt>
<trkpt lat="63.779939000" lon="20.332395000"><ele>41.5</ele><time>2013-09-29T16:24:29Z</time></trkpt>
<trkpt lat="63.779830000" lon="20.332467000"><ele>41.6</ele><time>2013-09-29T16:24:33Z</time></trkpt>
<trkpt lat="63.779743000" lon="20.332527000"><ele>41.9</ele><time>2013-09-29T16:24:36Z</time></trkpt>
<trkpt lat="63.779653000" lon="20.332704000"><ele>42.3</ele><time>2013-09-29T16:24:40Z</time></trkpt>
<trkpt lat="63.779614000" lon="20.332947000"><ele>42.5</ele><time>2013-09-29T16:24:44Z</time></trkpt>
<trkpt lat="63.779612000" lon="20.333225000"><ele>42.8</ele><time>2013-09-29T16:24:47Z</time></trkpt>
<trkpt lat="63.779622000" lon="20.333504000"><ele>43.1</ele><time>2013-09-29T16:24:50Z</time></trkpt>
<trkpt lat="63.779631000" lon="20.333801000"><ele>43.4</ele><time>2013-09-29T16:24:53Z</time></trkpt>
<trkpt lat="63.779668000" lon="20.334028000"><ele>43.6</ele><time>2013-09-29T16:24:57Z</time></trkpt>
<trkpt lat="63.779714000" lon="20.334239000"><ele>43.9</ele><time>2013-09-29T16:25:01Z</time></trkpt>
<trkpt lat="63.779799000" lon="20.334323000"><ele>44.5</ele><time>2013-09-29T16:25:04Z</time></trkpt>
<trkpt lat="63.779893000" lon="20.334364000"><ele>44.8</ele><time>2013-09-29T16:25:07Z</time></trkpt>
<trkpt lat="63.779987000" lon="20.334392000"><ele>45.2</ele><time>2013-09-29T16:25:10Z</time></trkpt>
<trkpt lat="63.780109000" lon="20.334419000"><ele>45.5</ele><time>2013-09-29T16:25:14Z</time></trkpt>
<trkpt lat="63.780202000" lon="20.334519000"><ele>45.6</ele><time>2013-09-29T16:25:17Z</time></trkpt>
<trkpt lat="63.780263000" lon="20.334671000"><ele>45.9</ele><time>2013-09-29T16:25:20Z</time></trkpt>
<trkpt lat="63.780356000" lon="20.334862000"><ele>46.2</ele><time>2013-09-29T16:25:24Z</time></trkpt>
<trkpt lat="63.780407000" lon="20.335032000"><ele>46.5</ele><time>2013-09-29T16:25:27Z</time></trkpt>
<trkpt lat="63.780471000" lon="20.335216000"><ele>46.7</ele><time>2013-09-29T16:25:31Z</time></trkpt>
<trkpt lat="63.780523000" lon="20.335419000"><ele>47.0</ele><time>2013-09-29T16:25:34Z</time></trkpt>
<trkpt lat="63.780557000" lon="20.335652000"><ele>47.3</ele><time>2013-09-29T16:25:37Z</time></trkpt>
<trkpt lat="63.780584000" lon="20.335848000"><ele>47.5</ele><time>2013-09-29T16:25:40Z</time></trkpt>
<trkpt lat="63.780619000" lon="20.336067000"><ele>47.6</ele><time>2013-09-29T16:25:44Z</time></trkpt>
<trkpt lat="63.780651000" lon="20.336264000"><ele>47.7</ele><time>2013-09-29T16:25:48Z</time></trkpt>
<trkpt lat="63.780666000" lon="20.336511000"><ele>47.7</ele><time>2013-09-29T16:25:52Z</time></trkpt>
<trkpt lat="63.780655000" lon="20.336725000"><ele>47.7</ele><time>2013-09-29T16:25:57Z</time></trkpt>
<trkpt lat="63.780569000" lon="20.336834000"><ele>47.6</ele><time>2013-09-29T16:26:01Z</time></trkpt>
<trkpt lat="63.780471000" lon="20.336900000"><ele>47.5</ele><time>2013-09-29T16:26:04Z</time></trkpt>
<trkpt lat="63.780346000" lon="20.336992000"><ele>47.5</ele><time>2013-09-29T16:26:07Z</time></trkpt>
<trkpt lat="63.780260000" lon="20.337067000"><ele>47.4</ele><time>2013-09-29T16:26:09Z</time></trkpt>
<trkpt lat="63.780163000" lon="20.337142000"><ele>47.3</ele><time>2013-09-29T16:26:11Z</time></trkpt>
<trkpt lat="63.780065000" lon="20.337213000"><ele>47.0</ele><time>2013-09-29T16:26:13Z</time></trkpt>
<trkpt lat="63.779954000" lon="20.337349000"><ele>46.7</ele><time>2013-09-29T16:26:15Z</time></trkpt>
<trkpt lat="63.779830000" lon="20.337486000"><ele>46.5</ele><time>2013-09-29T16:26:17Z</time></trkpt>
<trkpt lat="63.779724000" lon="20.337567000"><ele>46.3</ele><time>2013-09-29T16:26:19Z</time></trkpt>
<trkpt lat="63.779632000" lon="20.337600000"><ele>46.1</ele><time>2013-09-29T16:26:21Z</time></trkpt>
<trkpt lat="63.779536000" lon="20.337721000"><ele>45.9</ele><time>2013-09-29T16:26:23Z</time></trkpt>
<trkpt lat="63.779445000" lon="20.337766000"><ele>45.7</ele><time>2013-09-29T16:26:25Z</time></trkpt>
<trkpt lat="63.779335000" lon="20.337801000"><ele>45.5</ele><time>2013-09-29T16:26:27Z</time></trkpt>
<trkpt lat="63.779235000" lon="20.337808000"><ele>45.3</ele><time>2013-09-29T16:26:29Z</time></trkpt>
<trkpt lat="63.779141000" lon="20.337769000"><ele>45.1</ele><time>2013-09-29T16:26:31Z</time></trkpt>
<trkpt lat="63.779037000" lon="20.337689000"><ele>44.9</ele><time>2013-09-29T16:26:33Z</time></trkpt>
<trkpt lat="63.778950000" lon="20.337537000"><ele>44.9</ele><time>2013-09-29T16:26:35Z</time></trkpt>
<trkpt lat="63.778874000" lon="20.337369000"><ele>44.9</ele><time>2013-09-29T16:26:37Z</time></trkpt>
<trkpt lat="63.778800000" lon="20.337197000"><ele>44.8</ele><time>2013-09-29T16:26:39Z</time></trkpt>
<trkpt lat="63.778724000" lon="20.336987000"><ele>44.7</ele><time>2013-09-29T16:26:41Z</time></trkpt>
<trkpt lat="63.778670000" lon="20.336766000"><ele>44.6</ele><time>2013-09-29T16:26:43Z</time></trkpt>
<trkpt lat="63.778619000" lon="20.336533000"><ele>44.5</ele><time>2013-09-29T16:26:45Z</time></trkpt>
<trkpt lat="63.778567000" lon="20.336297000"><ele>44.3</ele><time>2013-09-29T16:26:47Z</time></trkpt>
<trkpt lat="63.778523000" lon="20.336059000"><ele>44.1</ele><time>2013-09-29T16:26:49Z</time></trkpt>
<trkpt lat="63.778485000" lon="20.335811000"><ele>43.8</ele><time>2013-09-29T16:26:51Z</time></trkpt>
<trkpt lat="63.778445000" lon="20.335576000"><ele>43.5</ele><time>2013-09-29T16:26:53Z</time></trkpt>
<trkpt lat="63.778389000" lon="20.335344000"><ele>43.1</ele><time>2013-09-29T16:26:55Z</time></trkpt>
<trkpt lat="63.778337000" lon="20.335109000"><ele>42.5</ele><time>2013-09-29T16:26:57Z</time></trkpt>
<trkpt lat="63.778285000" lon="20.334862000"><ele>42.0</ele><time>2013-09-29T16:26:59Z</time></trkpt>
<trkpt lat="63.778201000" lon="20.334608000"><ele>41.5</ele><time>2013-09-29T16:27:01Z</time></trkpt>
<trkpt lat="63.778125000" lon="20.334322000"><ele>41.1</ele><time>2013-09-29T16:27:03Z</time></trkpt>
<trkpt lat="63.778047000" lon="20.334054000"><ele>40.6</ele><time>2013-09-29T16:27:05Z</time></trkpt>
<trkpt lat="63.777950000" lon="20.333770000"><ele>40.2</ele><time>2013-09-29T16:27:07Z</time></trkpt>
<trkpt lat="63.777888000" lon="20.333616000"><ele>39.7</ele><time>2013-09-29T16:27:08Z</time></trkpt>
<trkpt lat="63.777764000" lon="20.333337000"><ele>39.3</ele><time>2013-09-29T16:27:10Z</time></trkpt>
<trkpt lat="63.777692000" lon="20.333183000"><ele>39.0</ele><time>2013-09-29T16:27:11Z</time></trkpt>
<trkpt lat="63.777624000" lon="20.333032000"><ele>38.7</ele><time>2013-09-29T16:27:12Z</time></trkpt>
<trkpt lat="63.777550000" lon="20.332876000"><ele>38.2</ele><time>2013-09-29T16:27:13Z</time></trkpt>
<trkpt lat="63.777480000" lon="20.332723000"><ele>37.8</ele><time>2013-09-29T16:27:14Z</time></trkpt>
<trkpt lat="63.777410000" lon="20.332569000"><ele>37.5</ele><time>2013-09-29T16:27:15Z</time></trkpt>
<trkpt lat="63.777338000" lon="20.332396000"><ele>37.1</ele><time>2013-09-29T16:27:16Z</time></trkpt>
<trkpt lat="63.777267000" lon="20.332222000"><ele>36.5</ele><time>2013-09-29T16:27:17Z</time></trkpt>
<trkpt lat="63.777200000" lon="20.332036000"><ele>36.0</ele><time>2013-09-29T16:27:18Z</time></trkpt>
<trkpt lat="63.777139000" lon="20.331867000"><ele>35.5</ele><time>2013-09-29T16:27:19Z</time></trkpt>
<trkpt lat="63.777080000" lon="20.331693000"><ele>35.1</ele><time>2013-09-29T16:27:20Z</time></trkpt>
<trkpt lat="63.777028000" lon="20.331523000"><ele>34.6</ele><time>2013-09-29T16:27:21Z</time></trkpt>
<trkpt lat="63.776972000" lon="20.331346000"><ele>33.9</ele><time>2013-09-29T16:27:22Z</time></trkpt>
<trkpt lat="63.776914000" lon="20.331167000"><ele>33.2</ele><time>2013-09-29T16:27:23Z</time></trkpt>
<trkpt lat="63.776856000" lon="20.330995000"><ele>32.7</ele><time>2013-09-29T16:27:24Z</time></trkpt>
<trkpt lat="63.776794000" lon="20.330803000"><ele>32.3</ele><time>2013-09-29T16:27:25Z</time></trkpt>
<trkpt lat="63.776732000" lon="20.330606000"><ele>31.6</ele><time>2013-09-29T16:27:26Z</time></trkpt>
<trkpt lat="63.776664000" lon="20.330403000"><ele>31.0</ele><time>2013-09-29T16:27:27Z</time></trkpt>
<trkpt lat="63.776604000" lon="20.330218000"><ele>30.5</ele><time>2013-09-29T16:27:28Z</time></trkpt>
<trkpt lat="63.776543000" lon="20.330016000"><ele>29.8</ele><time>2013-09-29T16:27:29Z</time></trkpt>
<trkpt lat="63.776483000" lon="20.329817000"><ele>29.1</ele><time>2013-09-29T16:27:30Z</time></trkpt>
<trkpt lat="63.776428000" lon="20.329634000"><ele>28.4</ele><time>2013-09-29T16:27:31Z</time></trkpt>
<trkpt lat="63.776330000" lon="20.329293000"><ele>27.6</ele><time>2013-09-29T16:27:33Z</time></trkpt>
<trkpt lat="63.776238000" lon="20.328982000"><ele>27.2</ele><time>2013-09-29T16:27:35Z</time></trkpt>
<trkpt lat="63.776175000" lon="20.328733000"><ele>26.7</ele><time>2013-09-29T16:27:37Z</time></trkpt>
<trkpt lat="63.776145000" lon="20.328492000"><ele>26.3</ele><time>2013-09-29T16:27:40Z</time></trkpt>
<trkpt lat="63.776084000" lon="20.328274000"><ele>25.8</ele><time>2013-09-29T16:27:44Z</time></trkpt>
<trkpt lat="63.775970000" lon="20.328276000"><ele>25.8</ele><time>2013-09-29T16:27:47Z</time></trkpt>
<trkpt lat="63.775887000" lon="20.328359000"><ele>25.7</ele><time>2013-09-29T16:27:49Z</time></trkpt>
<trkpt lat="63.775798000" lon="20.328462000"><ele>25.6</ele><time>2013-09-29T16:27:51Z</time></trkpt>
<trkpt lat="63.775691000" lon="20.328598000"><ele>25.8</ele><time>2013-09-29T16:27:53Z</time></trkpt>
<trkpt lat="63.775584000" lon="20.328736000"><ele>26.0</ele><time>2013-09-29T16:27:55Z</time></trkpt>
<trkpt lat="63.775476000" lon="20.328875000"><ele>26.2</ele><time>2013-09-29T16:27:57Z</time></trkpt>
<trkpt lat="63.775361000" lon="20.329015000"><ele>26.6</ele><time>2013-09-29T16:27:59Z</time></trkpt>
<trkpt lat="63.775246000" lon="20.329153000"><ele>27.1</ele><time>2013-09-29T16:28:01Z</time></trkpt>
<trkpt lat="63.775128000" lon="20.329303000"><ele>27.5</ele><time>2013-09-29T16:28:03Z</time></trkpt>
<trkpt lat="63.775013000" lon="20.329461000"><ele>28.0</ele><time>2013-09-29T16:28:05Z</time></trkpt>
<trkpt lat="63.774896000" lon="20.329613000"><ele>28.5</ele><time>2013-09-29T16:28:07Z</time></trkpt>
<trkpt lat="63.774777000" lon="20.329778000"><ele>28.6</ele><time>2013-09-29T16:28:09Z</time></trkpt>
<trkpt lat="63.774658000" lon="20.329938000"><ele>29.1</ele><time>2013-09-29T16:28:11Z</time></trkpt>
<trkpt lat="63.774556000" lon="20.330066000"><ele>29.5</ele><time>2013-09-29T16:28:13Z</time></trkpt>
<trkpt lat="63.774439000" lon="20.330209000"><ele>30.0</ele><time>2013-09-29T16:28:15Z</time></trkpt>
<trkpt lat="63.774319000" lon="20.330373000"><ele>30.3</ele><time>2013-09-29T16:28:17Z</time></trkpt>
<trkpt lat="63.774201000" lon="20.330530000"><ele>30.5</ele><time>2013-09-29T16:28:19Z</time></trkpt>
<trkpt lat="63.774091000" lon="20.330672000"><ele>30.5</ele><time>2013-09-29T16:28:21Z</time></trkpt>
<trkpt lat="63.773971000" lon="20.330815000"><ele>30.8</ele><time>2013-09-29T16:28:23Z</time></trkpt>
<trkpt lat="63.773868000" lon="20.330935000"><ele>31.1</ele><time>2013-09-29T16:28:25Z</time></trkpt>
<trkpt lat="63.773756000" lon="20.331052000"><ele>31.4</ele><time>2013-09-29T16:28:27Z</time></trkpt>
<trkpt lat="63.773640000" lon="20.331172000"><ele>31.6</ele><time>2013-09-29T16:28:29Z</time></trkpt>
<trkpt lat="63.773522000" lon="20.331311000"><ele>31.7</ele><time>2013-09-29T16:28:31Z</time></trkpt>
<trkpt lat="63.773399000" lon="20.331460000"><ele>31.6</ele><time>2013-09-29T16:28:33Z</time></trkpt>
<trkpt lat="63.773278000" lon="20.331611000"><ele>31.7</ele><time>2013-09-29T16:28:35Z</time></trkpt>
<trkpt lat="63.773161000" lon="20.331760000"><ele>31.8</ele><time>2013-09-29T16:28:37Z</time></trkpt>
<trkpt lat="63.773040000" lon="20.331906000"><ele>32.1</ele><time>2013-09-29T16:28:39Z</time></trkpt>
<trkpt lat="63.772927000" lon="20.332030000"><ele>32.4</ele><time>2013-09-29T16:28:41Z</time></trkpt>
<trkpt lat="63.772811000" lon="20.332166000"><ele>32.6</ele><time>2013-09-29T16:28:43Z</time></trkpt>
<trkpt lat="63.772685000" lon="20.332316000"><ele>32.5</ele><time>2013-09-29T16:28:45Z</time></trkpt>
<trkpt lat="63.772571000" lon="20.332448000"><ele>32.5</ele><time>2013-09-29T16:28:47Z</time></trkpt>
<trkpt lat="63.772447000" lon="20.332587000"><ele>32.4</ele><time>2013-09-29T16:28:49Z</time></trkpt>
<trkpt lat="63.772319000" lon="20.332737000"><ele>32.3</ele><time>2013-09-29T16:28:51Z</time></trkpt>
<trkpt lat="63.772198000" lon="20.332872000"><ele>32.4</ele><time>2013-09-29T16:28:53Z</time></trkpt>
<trkpt lat="63.772079000" lon="20.333005000"><ele>32.5</ele><time>2013-09-29T16:28:55Z</time></trkpt>
<trkpt lat="63.771961000" lon="20.333145000"><ele>32.4</ele><time>2013-09-29T16:28:57Z</time></trkpt>
<trkpt lat="63.771849000" lon="20.333267000"><ele>32.4</ele><time>2013-09-29T16:28:59Z</time></trkpt>
<trkpt lat="63.771740000" lon="20.333392000"><ele>32.1</ele><time>2013-09-29T16:29:01Z</time></trkpt>
<trkpt lat="63.771629000" lon="20.333521000"><ele>31.8</ele><time>2013-09-29T16:29:03Z</time></trkpt>
<trkpt lat="63.771513000" lon="20.333658000"><ele>31.5</ele><time>2013-09-29T16:29:05Z</time></trkpt>
<trkpt lat="63.771392000" lon="20.333790000"><ele>31.4</ele><time>2013-09-29T16:29:07Z</time></trkpt>
<trkpt lat="63.771271000" lon="20.333911000"><ele>31.2</ele><time>2013-09-29T16:29:09Z</time></trkpt>
<trkpt lat="63.771157000" lon="20.334034000"><ele>31.0</ele><time>2013-09-29T16:29:11Z</time></trkpt>
<trkpt lat="63.771040000" lon="20.334156000"><ele>30.8</ele><time>2013-09-29T16:29:13Z</time></trkpt>
<trkpt lat="63.770919000" lon="20.334276000"><ele>30.5</ele><time>2013-09-29T16:29:15Z</time></trkpt>
<trkpt lat="63.770800000" lon="20.334393000"><ele>30.1</ele><time>2013-09-29T16:29:17Z</time></trkpt>
<trkpt lat="63.770677000" lon="20.334510000"><ele>29.7</ele><time>2013-09-29T16:29:19Z</time></trkpt>
<trkpt lat="63.770558000" lon="20.334634000"><ele>29.5</ele><time>2013-09-29T16:29:21Z</time></trkpt>
<trkpt lat="63.770451000" lon="20.334753000"><ele>29.5</ele><time>2013-09-29T16:29:23Z</time></trkpt>
<trkpt lat="63.770350000" lon="20.334874000"><ele>29.5</ele><time>2013-09-29T16:29:25Z</time></trkpt>
<trkpt lat="63.770305000" lon="20.335074000"><ele>29.5</ele><time>2013-09-29T16:29:28Z</time></trkpt>
<trkpt lat="63.770393000" lon="20.335176000"><ele>29.5</ele><time>2013-09-29T16:29:31Z</time></trkpt>
<trkpt lat="63.770501000" lon="20.335302000"><ele>29.5</ele><time>2013-09-29T16:29:34Z</time></trkpt>
<trkpt lat="63.770634000" lon="20.335399000"><ele>29.5</ele><time>2013-09-29T16:29:37Z</time></trkpt>
<trkpt lat="63.770752000" lon="20.335377000"><ele>29.5</ele><time>2013-09-29T16:29:39Z</time></trkpt>
<trkpt lat="63.770874000" lon="20.335334000"><ele>29.8</ele><time>2013-09-29T16:29:41Z</time></trkpt>
<trkpt lat="63.770982000" lon="20.335293000"><ele>30.1</ele><time>2013-09-29T16:29:43Z</time></trkpt>
<trkpt lat="63.771074000" lon="20.335308000"><ele>30.4</ele><time>2013-09-29T16:29:45Z</time></trkpt>
<trkpt lat="63.771163000" lon="20.335389000"><ele>30.5</ele><time>2013-09-29T16:29:47Z</time></trkpt>
<trkpt lat="63.771223000" lon="20.335546000"><ele>30.5</ele><time>2013-09-29T16:29:49Z</time></trkpt>
<trkpt lat="63.771233000" lon="20.335764000"><ele>30.6</ele><time>2013-09-29T16:29:51Z</time></trkpt>
<trkpt lat="63.771226000" lon="20.335989000"><ele>30.7</ele><time>2013-09-29T16:29:53Z</time></trkpt>
<trkpt lat="63.771193000" lon="20.336184000"><ele>30.9</ele><time>2013-09-29T16:29:55Z</time></trkpt>
<trkpt lat="63.771160000" lon="20.336385000"><ele>31.1</ele><time>2013-09-29T16:29:57Z</time></trkpt>
<trkpt lat="63.771128000" lon="20.336602000"><ele>31.3</ele><time>2013-09-29T16:29:59Z</time></trkpt>
<trkpt lat="63.771118000" lon="20.336808000"><ele>31.5</ele><time>2013-09-29T16:30:01Z</time></trkpt>
<trkpt lat="63.771123000" lon="20.337043000"><ele>31.6</ele><time>2013-09-29T16:30:03Z</time></trkpt>
<trkpt lat="63.771137000" lon="20.337263000"><ele>32.1</ele><time>2013-09-29T16:30:05Z</time></trkpt>
<trkpt lat="63.771153000" lon="20.337489000"><ele>32.5</ele><time>2013-09-29T16:30:07Z</time></trkpt>
<trkpt lat="63.771184000" lon="20.337745000"><ele>33.0</ele><time>2013-09-29T16:30:10Z</time></trkpt>
<trkpt lat="63.771200000" lon="20.338012000"><ele>33.5</ele><time>2013-09-29T16:30:14Z</time></trkpt>
<trkpt lat="63.771238000" lon="20.338211000"><ele>33.9</ele><time>2013-09-29T16:30:17Z</time></trkpt>
<trkpt lat="63.771272000" lon="20.338472000"><ele>34.4</ele><time>2013-09-29T16:30:20Z</time></trkpt>
<trkpt lat="63.771298000" lon="20.338706000"><ele>34.8</ele><time>2013-09-29T16:30:23Z</time></trkpt>
<trkpt lat="63.771293000" lon="20.339001000"><ele>35.3</ele><time>2013-09-29T16:30:26Z</time></trkpt>
<trkpt lat="63.771294000" lon="20.339242000"><ele>35.7</ele><time>2013-09-29T16:30:28Z</time></trkpt>
<trkpt lat="63.771300000" lon="20.339464000"><ele>36.3</ele><time>2013-09-29T16:30:30Z</time></trkpt>
<trkpt lat="63.771297000" lon="20.339674000"><ele>36.8</ele><time>2013-09-29T16:30:32Z</time></trkpt>
<trkpt lat="63.771301000" lon="20.339893000"><ele>37.1</ele><time>2013-09-29T16:30:34Z</time></trkpt>
<trkpt lat="63.771310000" lon="20.340110000"><ele>37.5</ele><time>2013-09-29T16:30:36Z</time></trkpt>
<trkpt lat="63.771315000" lon="20.340421000"><ele>37.8</ele><time>2013-09-29T16:30:39Z</time></trkpt>
<trkpt lat="63.771310000" lon="20.340624000"><ele>38.2</ele><time>2013-09-29T16:30:41Z</time></trkpt>
<trkpt lat="63.771304000" lon="20.340903000"><ele>38.5</ele><time>2013-09-29T16:30:44Z</time></trkpt>
<trkpt lat="63.771313000" lon="20.341147000"><ele>38.9</ele><time>2013-09-29T16:30:46Z</time></trkpt>
<trkpt lat="63.771339000" lon="20.341419000"><ele>39.2</ele><time>2013-09-29T16:30:49Z</time></trkpt>
<trkpt lat="63.771362000" lon="20.341711000"><ele>39.5</ele><time>2013-09-29T16:30:52Z</time></trkpt>
<trkpt lat="63.771351000" lon="20.342007000"><ele>39.7</ele><time>2013-09-29T16:30:55Z</time></trkpt>
<trkpt lat="63.771344000" lon="20.342261000"><ele>39.9</ele><time>2013-09-29T16:30:58Z</time></trkpt>
<trkpt lat="63.771329000" lon="20.342521000"><ele>40.1</ele><time>2013-09-29T16:31:01Z</time></trkpt>
<trkpt lat="63.771315000" lon="20.342723000"><ele>40.3</ele><time>2013-09-29T16:31:03Z</time></trkpt>
<trkpt lat="63.771295000" lon="20.342940000"><ele>40.4</ele><time>2013-09-29T16:31:05Z</time></trkpt>
<trkpt lat="63.771268000" lon="20.343199000"><ele>40.5</ele><time>2013-09-29T16:31:08Z</time></trkpt>
<trkpt lat="63.771220000" lon="20.343422000"><ele>40.5</ele><time>2013-09-29T16:31:11Z</time></trkpt>
<trkpt lat="63.771198000" lon="20.343682000"><ele>40.5</ele><time>2013-09-29T16:31:14Z</time></trkpt>
<trkpt lat="63.771225000" lon="20.343976000"><ele>40.5</ele><time>2013-09-29T16:31:17Z</time></trkpt>
<trkpt lat="63.771238000" lon="20.344182000"><ele>40.5</ele><time>2013-09-29T16:31:19Z</time></trkpt>
<trkpt lat="63.771260000" lon="20.344393000"><ele>40.5</ele><time>2013-09-29T16:31:21Z</time></trkpt>
<trkpt lat="63.771296000" lon="20.344656000"><ele>40.5</ele><time>2013-09-29T16:31:24Z</time></trkpt>
<trkpt lat="63.771314000" lon="20.344889000"><ele>40.4</ele><time>2013-09-29T16:31:27Z</time></trkpt>
<trkpt lat="63.771331000" lon="20.345154000"><ele>40.3</ele><time>2013-09-29T16:31:31Z</time></trkpt>
<trkpt lat="63.771358000" lon="20.345411000"><ele>40.3</ele><time>2013-09-29T16:31:35Z</time></trkpt>
<trkpt lat="63.771410000" lon="20.345612000"><ele>40.3</ele><time>2013-09-29T16:31:38Z</time></trkpt>
<trkpt lat="63.771496000" lon="20.345844000"><ele>40.3</ele><time>2013-09-29T16:31:41Z</time></trkpt>
<trkpt lat="63.771533000" lon="20.346043000"><ele>40.5</ele><time>2013-09-29T16:31:43Z</time></trkpt>
<trkpt lat="63.771550000" lon="20.346268000"><ele>40.6</ele><time>2013-09-29T16:31:45Z</time></trkpt>
<trkpt lat="63.771563000" lon="20.346564000"><ele>40.8</ele><time>2013-09-29T16:31:48Z</time></trkpt>
<trkpt lat="63.771563000" lon="20.346787000"><ele>41.4</ele><time>2013-09-29T16:31:50Z</time></trkpt>
<trkpt lat="63.771550000" lon="20.346995000"><ele>41.9</ele><time>2013-09-29T16:31:52Z</time></trkpt>
<trkpt lat="63.771547000" lon="20.347209000"><ele>42.5</ele><time>2013-09-29T16:31:54Z</time></trkpt>
<trkpt lat="63.771524000" lon="20.347436000"><ele>43.0</ele><time>2013-09-29T16:31:56Z</time></trkpt>
<trkpt lat="63.771497000" lon="20.347690000"><ele>43.8</ele><time>2013-09-29T16:31:59Z</time></trkpt>
<trkpt lat="63.771467000" lon="20.347970000"><ele>44.5</ele><time>2013-09-29T16:32:02Z</time></trkpt>
<trkpt lat="63.771448000" lon="20.348185000"><ele>45.3</ele><time>2013-09-29T16:32:04Z</time></trkpt>
<trkpt lat="63.771451000" lon="20.348436000"><ele>46.0</ele><time>2013-09-29T16:32:07Z</time></trkpt>
<trkpt lat="63.771476000" lon="20.348662000"><ele>46.6</ele><time>2013-09-29T16:32:10Z</time></trkpt>
<trkpt lat="63.771493000" lon="20.348904000"><ele>47.5</ele><time>2013-09-29T16:32:13Z</time></trkpt>
<trkpt lat="63.771521000" lon="20.349161000"><ele>48.3</ele><time>2013-09-29T16:32:17Z</time></trkpt>
<trkpt lat="63.771545000" lon="20.349362000"><ele>48.7</ele><time>2013-09-29T16:32:20Z</time></trkpt>
<trkpt lat="63.771595000" lon="20.349563000"><ele>49.2</ele><time>2013-09-29T16:32:23Z</time></trkpt>
<trkpt lat="63.771692000" lon="20.349699000"><ele>49.5</ele><time>2013-09-29T16:32:26Z</time></trkpt>
<trkpt lat="63.771789000" lon="20.349823000"><ele>49.7</ele><time>2013-09-29T16:32:29Z</time></trkpt>
<trkpt lat="63.771878000" lon="20.349962000"><ele>49.8</ele><time>2013-09-29T16:32:32Z</time></trkpt>
<trkpt lat="63.771946000" lon="20.350103000"><ele>49.9</ele><time>2013-09-29T16:32:35Z</time></trkpt>
<trkpt lat="63.772038000" lon="20.350235000"><ele>50.0</ele><time>2013-09-29T16:32:38Z</time></trkpt>
<trkpt lat="63.772122000" lon="20.350310000"><ele>50.1</ele><time>2013-09-29T16:32:41Z</time></trkpt>
<trkpt lat="63.772224000" lon="20.350419000"><ele>50.2</ele><time>2013-09-29T16:32:44Z</time></trkpt>
<trkpt lat="63.772312000" lon="20.350545000"><ele>50.1</ele><time>2013-09-29T16:32:47Z</time></trkpt>
<trkpt lat="63.772414000" lon="20.350629000"><ele>49.9</ele><time>2013-09-29T16:32:49Z</time></trkpt>
<trkpt lat="63.772520000" lon="20.350704000"><ele>49.7</ele><time>2013-09-29T16:32:51Z</time></trkpt>
<trkpt lat="63.772643000" lon="20.350788000"><ele>49.5</ele><time>2013-09-29T16:32:53Z</time></trkpt>
<trkpt lat="63.772754000" lon="20.350858000"><ele>49.5</ele><time>2013-09-29T16:32:55Z</time></trkpt>
<trkpt lat="63.772882000" lon="20.350924000"><ele>49.5</ele><time>2013-09-29T16:32:57Z</time></trkpt>
<trkpt lat="63.772987000" lon="20.350962000"><ele>49.5</ele><time>2013-09-29T16:32:59Z</time></trkpt>
<trkpt lat="63.773104000" lon="20.351000000"><ele>49.5</ele><time>2013-09-29T16:33:01Z</time></trkpt>
<trkpt lat="63.773221000" lon="20.351042000"><ele>49.1</ele><time>2013-09-29T16:33:03Z</time></trkpt>
<trkpt lat="63.773331000" lon="20.351153000"><ele>48.6</ele><time>2013-09-29T16:33:05Z</time></trkpt>
<trkpt lat="63.773431000" lon="20.351254000"><ele>48.2</ele><time>2013-09-29T16:33:07Z</time></trkpt>
<trkpt lat="63.773540000" lon="20.351366000"><ele>47.7</ele><time>2013-09-29T16:33:09Z</time></trkpt>
<trkpt lat="63.773662000" lon="20.351421000"><ele>47.4</ele><time>2013-09-29T16:33:11Z</time></trkpt>
<trkpt lat="63.773802000" lon="20.351478000"><ele>47.0</ele><time>2013-09-29T16:33:13Z</time></trkpt>
<trkpt lat="63.773921000" lon="20.351534000"><ele>47.0</ele><time>2013-09-29T16:33:15Z</time></trkpt>
<trkpt lat="63.774046000" lon="20.351600000"><ele>47.0</ele><time>2013-09-29T16:33:17Z</time></trkpt>
<trkpt lat="63.774170000" lon="20.351672000"><ele>46.4</ele><time>2013-09-29T16:33:19Z</time></trkpt>
<trkpt lat="63.774282000" lon="20.351828000"><ele>45.6</ele><time>2013-09-29T16:33:21Z</time></trkpt>
<trkpt lat="63.774368000" lon="20.352097000"><ele>44.9</ele><time>2013-09-29T16:33:23Z</time></trkpt>
<trkpt lat="63.774446000" lon="20.352394000"><ele>44.6</ele><time>2013-09-29T16:33:25Z</time></trkpt>
<trkpt lat="63.774572000" lon="20.352607000"><ele>44.4</ele><time>2013-09-29T16:33:27Z</time></trkpt>
<trkpt lat="63.774702000" lon="20.352705000"><ele>44.1</ele><time>2013-09-29T16:33:29Z</time></trkpt>
<trkpt lat="63.774864000" lon="20.352748000"><ele>43.6</ele><time>2013-09-29T16:33:31Z</time></trkpt>
<trkpt lat="63.775022000" lon="20.352774000"><ele>43.2</ele><time>2013-09-29T16:33:33Z</time></trkpt>
<trkpt lat="63.775166000" lon="20.352854000"><ele>42.7</ele><time>2013-09-29T16:33:35Z</time></trkpt>
<trkpt lat="63.775285000" lon="20.353030000"><ele>41.9</ele><time>2013-09-29T16:33:37Z</time></trkpt>
<trkpt lat="63.775373000" lon="20.353252000"><ele>41.1</ele><time>2013-09-29T16:33:39Z</time></trkpt>
<trkpt lat="63.775462000" lon="20.353457000"><ele>40.9</ele><time>2013-09-29T16:33:42Z</time></trkpt>
<trkpt lat="63.775539000" lon="20.353640000"><ele>40.7</ele><time>2013-09-29T16:33:44Z</time></trkpt>
<trkpt lat="63.775614000" lon="20.353805000"><ele>40.5</ele><time>2013-09-29T16:33:47Z</time></trkpt>
<trkpt lat="63.775705000" lon="20.353978000"><ele>40.4</ele><time>2013-09-29T16:33:50Z</time></trkpt>
<trkpt lat="63.775744000" lon="20.354179000"><ele>40.2</ele><time>2013-09-29T16:33:52Z</time></trkpt>
<trkpt lat="63.775798000" lon="20.354445000"><ele>40.0</ele><time>2013-09-29T16:33:55Z</time></trkpt>
<trkpt lat="63.775858000" lon="20.354624000"><ele>40.0</ele><time>2013-09-29T16:33:57Z</time></trkpt>
<trkpt lat="63.775941000" lon="20.354850000"><ele>40.0</ele><time>2013-09-29T16:34:00Z</time></trkpt>
<trkpt lat="63.775994000" lon="20.355020000"><ele>40.0</ele><time>2013-09-29T16:34:03Z</time></trkpt>
<trkpt lat="63.776131000" lon="20.355298000"><ele>40.0</ele><time>2013-09-29T16:34:10Z</time></trkpt>
<trkpt lat="63.776234000" lon="20.355389000"><ele>40.0</ele><time>2013-09-29T16:34:14Z</time></trkpt>
<trkpt lat="63.776331000" lon="20.355452000"><ele>40.0</ele><time>2013-09-29T16:34:17Z</time></trkpt>
<trkpt lat="63.776418000" lon="20.355512000"><ele>40.0</ele><time>2013-09-29T16:34:19Z</time></trkpt>
<trkpt lat="63.776523000" lon="20.355564000"><ele>40.0</ele><time>2013-09-29T16:34:22Z</time></trkpt>
<trkpt lat="63.776624000" lon="20.355592000"><ele>40.0</ele><time>2013-09-29T16:34:25Z</time></trkpt>
<trkpt lat="63.776771000" lon="20.355665000"><ele>40.0</ele><time>2013-09-29T16:34:30Z</time></trkpt>
<trkpt lat="63.776858000" lon="20.355710000"><ele>40.0</ele><time>2013-09-29T16:34:33Z</time></trkpt>
<trkpt lat="63.776958000" lon="20.355800000"><ele>40.0</ele><time>2013-09-29T16:34:36Z</time></trkpt>
<trkpt lat="63.777053000" lon="20.355913000"><ele>40.0</ele><time>2013-09-29T16:34:39Z</time></trkpt>
<trkpt lat="63.777139000" lon="20.356003000"><ele>40.0</ele><time>2013-09-29T16:34:42Z</time></trkpt>
<trkpt lat="63.777243000" lon="20.356108000"><ele>40.0</ele><time>2013-09-29T16:34:46Z</time></trkpt>
<trkpt lat="63.777337000" lon="20.356263000"><ele>40.0</ele><time>2013-09-29T16:34:50Z</time></trkpt>
<trkpt lat="63.777432000" lon="20.356327000"><ele>40.0</ele><time>2013-09-29T16:34:54Z</time></trkpt>
<trkpt lat="63.777522000" lon="20.356398000"><ele>39.8</ele><time>2013-09-29T16:34:58Z</time></trkpt>
<trkpt lat="63.777638000" lon="20.356508000"><ele>39.6</ele><time>2013-09-29T16:35:01Z</time></trkpt>
<trkpt lat="63.777727000" lon="20.356589000"><ele>39.5</ele><time>2013-09-29T16:35:03Z</time></trkpt>
<trkpt lat="63.777816000" lon="20.356680000"><ele>39.3</ele><time>2013-09-29T16:35:05Z</time></trkpt>
<trkpt lat="63.777918000" lon="20.356765000"><ele>39.1</ele><time>2013-09-29T16:35:07Z</time></trkpt>
<trkpt lat="63.778009000" lon="20.356836000"><ele>38.9</ele><time>2013-09-29T16:35:09Z</time></trkpt>
<trkpt lat="63.778109000" lon="20.356890000"><ele>38.6</ele><time>2013-09-29T16:35:11Z</time></trkpt>
<trkpt lat="63.778206000" lon="20.356924000"><ele>38.4</ele><time>2013-09-29T16:35:13Z</time></trkpt>
<trkpt lat="63.778349000" lon="20.357021000"><ele>37.9</ele><time>2013-09-29T16:35:18Z</time></trkpt>
<trkpt lat="63.778445000" lon="20.357057000"><ele>37.5</ele><time>2013-09-29T16:35:21Z</time></trkpt>
<trkpt lat="63.778549000" lon="20.357057000"><ele>37.0</ele><time>2013-09-29T16:35:26Z</time></trkpt>
<trkpt lat="63.778664000" lon="20.357179000"><ele>36.7</ele><time>2013-09-29T16:35:32Z</time></trkpt>
<trkpt lat="63.778764000" lon="20.357237000"><ele>36.5</ele><time>2013-09-29T16:35:36Z</time></trkpt>
<trkpt lat="63.778853000" lon="20.357289000"><ele>36.2</ele><time>2013-09-29T16:35:39Z</time></trkpt>
<trkpt lat="63.778949000" lon="20.357368000"><ele>35.9</ele><time>2013-09-29T16:35:42Z</time></trkpt>
<trkpt lat="63.779054000" lon="20.357415000"><ele>35.6</ele><time>2013-09-29T16:35:46Z</time></trkpt>
<trkpt lat="63.779144000" lon="20.357491000"><ele>35.3</ele><time>2013-09-29T16:35:50Z</time></trkpt>
<trkpt lat="63.779268000" lon="20.357606000"><ele>34.9</ele><time>2013-09-29T16:35:56Z</time></trkpt>
<trkpt lat="63.779369000" lon="20.357684000"><ele>34.5</ele><time>2013-09-29T16:36:00Z</time></trkpt>
<trkpt lat="63.779483000" lon="20.357779000"><ele>34.4</ele><time>2013-09-29T16:36:05Z</time></trkpt>
<trkpt lat="63.779580000" lon="20.357873000"><ele>34.2</ele><time>2013-09-29T16:36:09Z</time></trkpt>
<trkpt lat="63.779674000" lon="20.357930000"><ele>34.0</ele><time>2013-09-29T16:36:13Z</time></trkpt>
<trkpt lat="63.779776000" lon="20.357963000"><ele>33.8</ele><time>2013-09-29T16:36:16Z</time></trkpt>
<trkpt lat="63.779882000" lon="20.358043000"><ele>33.6</ele><time>2013-09-29T16:36:20Z</time></trkpt>
<trkpt lat="63.779963000" lon="20.358172000"><ele>33.5</ele><time>2013-09-29T16:36:25Z</time></trkpt>
<trkpt lat="63.780063000" lon="20.358279000"><ele>33.3</ele><time>2013-09-29T16:36:29Z</time></trkpt>
<trkpt lat="63.780152000" lon="20.358337000"><ele>33.1</ele><time>2013-09-29T16:36:33Z</time></trkpt>
<trkpt lat="63.780275000" lon="20.358468000"><ele>32.9</ele><time>2013-09-29T16:36:38Z</time></trkpt>
<trkpt lat="63.780367000" lon="20.358527000"><ele>32.8</ele><time>2013-09-29T16:36:42Z</time></trkpt>
<trkpt lat="63.780501000" lon="20.358601000"><ele>32.7</ele><time>2013-09-29T16:36:47Z</time></trkpt>
<trkpt lat="63.780591000" lon="20.358666000"><ele>32.6</ele><time>2013-09-29T16:36:50Z</time></trkpt>
<trkpt lat="63.780743000" lon="20.358740000"><ele>32.5</ele><time>2013-09-29T16:36:57Z</time></trkpt>
<trkpt lat="63.780852000" lon="20.358785000"><ele>32.5</ele><time>2013-09-29T16:37:02Z</time></trkpt>
<trkpt lat="63.781031000" lon="20.358857000"><ele>32.4</ele><time>2013-09-29T16:37:09Z</time></trkpt>
<trkpt lat="63.781129000" lon="20.358888000"><ele>32.3</ele><time>2013-09-29T16:37:14Z</time></trkpt>
<trkpt lat="63.781203000" lon="20.359004000"><ele>32.2</ele><time>2013-09-29T16:37:19Z</time></trkpt>
<trkpt lat="63.781302000" lon="20.359137000"><ele>32.1</ele><time>2013-09-29T16:37:24Z</time></trkpt>
<trkpt lat="63.781490000" lon="20.359214000"><ele>32.0</ele><time>2013-09-29T16:37:29Z</time></trkpt>
<trkpt lat="63.781654000" lon="20.359245000"><ele>32.0</ele><time>2013-09-29T16:37:33Z</time></trkpt>
<trkpt lat="63.781742000" lon="20.359333000"><ele>32.0</ele><time>2013-09-29T16:37:36Z</time></trkpt>
<trkpt lat="63.781847000" lon="20.359431000"><ele>32.0</ele><time>2013-09-29T16:37:40Z</time></trkpt>
<trkpt lat="63.781969000" lon="20.359560000"><ele>32.0</ele><time>2013-09-29T16:37:45Z</time></trkpt>
<trkpt lat="63.782065000" lon="20.359629000"><ele>32.0</ele><time>2013-09-29T16:37:49Z</time></trkpt>
<trkpt lat="63.782171000" lon="20.359717000"><ele>32.0</ele><time>2013-09-29T16:37:54Z</time></trkpt>
<trkpt lat="63.782276000" lon="20.359791000"><ele>32.0</ele><time>2013-09-29T16:37:59Z</time></trkpt>
<trkpt lat="63.782365000" lon="20.359834000"><ele>32.0</ele><time>2013-09-29T16:38:03Z</time></trkpt>
<trkpt lat="63.782486000" lon="20.359897000"><ele>32.0</ele><time>2013-09-29T16:38:08Z</time></trkpt>
<trkpt lat="63.782580000" lon="20.359973000"><ele>32.0</ele><time>2013-09-29T16:38:12Z</time></trkpt>
<trkpt lat="63.782669000" lon="20.360049000"><ele>32.0</ele><time>2013-09-29T16:38:16Z</time></trkpt>
<trkpt lat="63.782780000" lon="20.360038000"><ele>32.0</ele><time>2013-09-29T16:38:20Z</time></trkpt>
<trkpt lat="63.782932000" lon="20.360109000"><ele>32.0</ele><time>2013-09-29T16:38:26Z</time></trkpt>
<trkpt lat="63.783067000" lon="20.360146000"><ele>32.0</ele><time>2013-09-29T16:38:31Z</time></trkpt>
<trkpt lat="63.783161000" lon="20.360191000"><ele>31.9</ele><time>2013-09-29T16:38:35Z</time></trkpt>
<trkpt lat="63.783272000" lon="20.360205000"><ele>31.8</ele><time>2013-09-29T16:38:39Z</time></trkpt>
<trkpt lat="63.783359000" lon="20.360280000"><ele>31.7</ele><time>2013-09-29T16:38:43Z</time></trkpt>
<trkpt lat="63.783449000" lon="20.360387000"><ele>31.6</ele><time>2013-09-29T16:38:48Z</time></trkpt>
<trkpt lat="63.783548000" lon="20.360485000"><ele>31.5</ele><time>2013-09-29T16:38:53Z</time></trkpt>
<trkpt lat="63.783635000" lon="20.360574000"><ele>31.5</ele><time>2013-09-29T16:38:57Z</time></trkpt>
<trkpt lat="63.783731000" lon="20.360631000"><ele>31.4</ele><time>2013-09-29T16:39:01Z</time></trkpt>
<trkpt lat="63.783828000" lon="20.360747000"><ele>31.3</ele><time>2013-09-29T16:39:05Z</time></trkpt>
<trkpt lat="63.783931000" lon="20.360813000"><ele>31.2</ele><time>2013-09-29T16:39:09Z</time></trkpt>
<trkpt lat="63.784008000" lon="20.360922000"><ele>31.1</ele><time>2013-09-29T16:39:13Z</time></trkpt>
<trkpt lat="63.784112000" lon="20.360965000"><ele>31.0</ele><time>2013-09-29T16:39:17Z</time></trkpt>
<trkpt lat="63.784204000" lon="20.361013000"><ele>31.0</ele><time>2013-09-29T16:39:20Z</time></trkpt>
<trkpt lat="63.784314000" lon="20.361063000"><ele>31.0</ele><time>2013-09-29T16:39:23Z</time></trkpt>
<trkpt lat="63.784411000" lon="20.361102000"><ele>31.0</ele><time>2013-09-29T16:39:26Z</time></trkpt>
<trkpt lat="63.784520000" lon="20.361098000"><ele>30.9</ele><time>2013-09-29T16:39:29Z</time></trkpt>
<trkpt lat="63.784613000" lon="20.361067000"><ele>30.8</ele><time>2013-09-29T16:39:32Z</time></trkpt>
<trkpt lat="63.784710000" lon="20.361138000"><ele>30.7</ele><time>2013-09-29T16:39:36Z</time></trkpt>
<trkpt lat="63.784794000" lon="20.361253000"><ele>30.6</ele><time>2013-09-29T16:39:40Z</time></trkpt>
<trkpt lat="63.784889000" lon="20.361304000"><ele>30.5</ele><time>2013-09-29T16:39:44Z</time></trkpt>
<trkpt lat="63.784992000" lon="20.361400000"><ele>30.5</ele><time>2013-09-29T16:39:48Z</time></trkpt>
<trkpt lat="63.785091000" lon="20.361495000"><ele>30.4</ele><time>2013-09-29T16:39:52Z</time></trkpt>
<trkpt lat="63.785165000" lon="20.361622000"><ele>30.3</ele><time>2013-09-29T16:39:55Z</time></trkpt>
<trkpt lat="63.785257000" lon="20.361671000"><ele>30.2</ele><time>2013-09-29T16:39:59Z</time></trkpt>
<trkpt lat="63.785366000" lon="20.361724000"><ele>30.1</ele><time>2013-09-29T16:40:04Z</time></trkpt>
<trkpt lat="63.785460000" lon="20.361740000"><ele>30.0</ele><time>2013-09-29T16:40:09Z</time></trkpt>
<trkpt lat="63.785560000" lon="20.361806000"><ele>30.0</ele><time>2013-09-29T16:40:14Z</time></trkpt>
<trkpt lat="63.785659000" lon="20.361897000"><ele>30.0</ele><time>2013-09-29T16:40:19Z</time></trkpt>
<trkpt lat="63.785755000" lon="20.361940000"><ele>30.0</ele><time>2013-09-29T16:40:23Z</time></trkpt>
<trkpt lat="63.785847000" lon="20.362023000"><ele>30.0</ele><time>2013-09-29T16:40:27Z</time></trkpt>
<trkpt lat="63.785938000" lon="20.362090000"><ele>30.0</ele><time>2013-09-29T16:40:33Z</time></trkpt>
<trkpt lat="63.786024000" lon="20.362165000"><ele>30.0</ele><time>2013-09-29T16:40:37Z</time></trkpt>
<trkpt lat="63.786119000" lon="20.362257000"><ele>30.0</ele><time>2013-09-29T16:40:42Z</time></trkpt>
<trkpt lat="63.786214000" lon="20.362330000"><ele>30.0</ele><time>2013-09-29T16:40:46Z</time></trkpt>
<trkpt lat="63.786321000" lon="20.362418000"><ele>30.0</ele><time>2013-09-29T16:40:50Z</time></trkpt>
<trkpt lat="63.786413000" lon="20.362476000"><ele>30.0</ele><time>2013-09-29T16:40:53Z</time></trkpt>
<trkpt lat="63.786508000" lon="20.362520000"><ele>30.0</ele><time>2013-09-29T16:40:56Z</time></trkpt>
<trkpt lat="63.786602000" lon="20.362586000"><ele>30.1</ele><time>2013-09-29T16:40:59Z</time></trkpt>
<trkpt lat="63.786708000" lon="20.362689000"><ele>30.2</ele><time>2013-09-29T16:41:03Z</time></trkpt>
<trkpt lat="63.786801000" lon="20.362736000"><ele>30.2</ele><time>2013-09-29T16:41:06Z</time></trkpt>
<trkpt lat="63.786909000" lon="20.362780000"><ele>30.2</ele><time>2013-09-29T16:41:10Z</time></trkpt>
<trkpt lat="63.787011000" lon="20.362866000"><ele>30.2</ele><time>2013-09-29T16:41:13Z</time></trkpt>
<trkpt lat="63.787109000" lon="20.362908000"><ele>30.2</ele><time>2013-09-29T16:41:16Z</time></trkpt>
<trkpt lat="63.787202000" lon="20.362986000"><ele>30.2</ele><time>2013-09-29T16:41:20Z</time></trkpt>
<trkpt lat="63.787299000" lon="20.363062000"><ele>30.2</ele><time>2013-09-29T16:41:24Z</time></trkpt>
<trkpt lat="63.787404000" lon="20.363140000"><ele>30.2</ele><time>2013-09-29T16:41:28Z</time></trkpt>
<trkpt lat="63.787491000" lon="20.363215000"><ele>30.2</ele><time>2013-09-29T16:41:31Z</time></trkpt>
<trkpt lat="63.787595000" lon="20.363287000"><ele>30.2</ele><time>2013-09-29T16:41:35Z</time></trkpt>
<trkpt lat="63.787711000" lon="20.363371000"><ele>30.1</ele><time>2013-09-29T16:41:39Z</time></trkpt>
<trkpt lat="63.787805000" lon="20.363472000"><ele>29.9</ele><time>2013-09-29T16:41:42Z</time></trkpt>
<trkpt lat="63.787892000" lon="20.363551000"><ele>29.8</ele><time>2013-09-29T16:41:44Z</time></trkpt>
<trkpt lat="63.788009000" lon="20.363661000"><ele>29.7</ele><time>2013-09-29T16:41:47Z</time></trkpt>
<trkpt lat="63.788108000" lon="20.363725000"><ele>29.6</ele><time>2013-09-29T16:41:49Z</time></trkpt>
<trkpt lat="63.788213000" lon="20.363800000"><ele>29.5</ele><time>2013-09-29T16:41:51Z</time></trkpt>
<trkpt lat="63.788306000" lon="20.363876000"><ele>29.5</ele><time>2013-09-29T16:41:53Z</time></trkpt>
<trkpt lat="63.788433000" lon="20.363924000"><ele>29.4</ele><time>2013-09-29T16:41:56Z</time></trkpt>
<trkpt lat="63.788542000" lon="20.363986000"><ele>29.3</ele><time>2013-09-29T16:41:59Z</time></trkpt>
<trkpt lat="63.788632000" lon="20.364174000"><ele>29.2</ele><time>2013-09-29T16:42:03Z</time></trkpt>
<trkpt lat="63.788688000" lon="20.364337000"><ele>29.1</ele><time>2013-09-29T16:42:06Z</time></trkpt>
<trkpt lat="63.788735000" lon="20.364560000"><ele>29.0</ele><time>2013-09-29T16:42:13Z</time></trkpt>
<trkpt lat="63.788801000" lon="20.364732000"><ele>29.0</ele><time>2013-09-29T16:42:16Z</time></trkpt>
<trkpt lat="63.788889000" lon="20.364910000"><ele>29.0</ele><time>2013-09-29T16:42:19Z</time></trkpt>
<trkpt lat="63.788998000" lon="20.365131000"><ele>29.0</ele><time>2013-09-29T16:42:24Z</time></trkpt>
<trkpt lat="63.789051000" lon="20.365306000"><ele>29.0</ele><time>2013-09-29T16:42:28Z</time></trkpt>
<trkpt lat="63.789123000" lon="20.365443000"><ele>29.0</ele><time>2013-09-29T16:42:32Z</time></trkpt>
<trkpt lat="63.789215000" lon="20.365462000"><ele>29.0</ele><time>2013-09-29T16:42:39Z</time></trkpt>
<trkpt lat="63.789217000" lon="20.365461000"><ele>29.0</ele><time>2013-09-29T16:42:41Z</time></trkpt>
</trkseg>
<trkseg>
<trkpt lat="63.789235000" lon="20.365567000"><ele>29.2</ele><time>2013-09-29T16:44:10Z</time></trkpt>
<trkpt lat="63.789289000" lon="20.365620000"><ele>29.3</ele><time>2013-09-29T16:44:21Z</time></trkpt>
<trkpt lat="63.789388000" lon="20.365681000"><ele>29.4</ele><time>2013-09-29T16:44:26Z</time></trkpt>
<trkpt lat="63.789478000" lon="20.365746000"><ele>29.4</ele><time>2013-09-29T16:44:30Z</time></trkpt>
<trkpt lat="63.789581000" lon="20.365795000"><ele>29.5</ele><time>2013-09-29T16:44:34Z</time></trkpt>
<trkpt lat="63.789681000" lon="20.365805000"><ele>29.5</ele><time>2013-09-29T16:44:38Z</time></trkpt>
<trkpt lat="63.789771000" lon="20.365881000"><ele>29.6</ele><time>2013-09-29T16:44:42Z</time></trkpt>
<trkpt lat="63.789857000" lon="20.366016000"><ele>29.7</ele><time>2013-09-29T16:44:46Z</time></trkpt>
<trkpt lat="63.789945000" lon="20.366076000"><ele>29.8</ele><time>2013-09-29T16:44:50Z</time></trkpt>
<trkpt lat="63.790047000" lon="20.366104000"><ele>29.9</ele><time>2013-09-29T16:44:55Z</time></trkpt>
<trkpt lat="63.790157000" lon="20.366061000"><ele>30.0</ele><time>2013-09-29T16:45:00Z</time></trkpt>
<trkpt lat="63.790247000" lon="20.366094000"><ele>30.0</ele><time>2013-09-29T16:45:04Z</time></trkpt>
<trkpt lat="63.790319000" lon="20.366284000"><ele>30.0</ele><time>2013-09-29T16:45:09Z</time></trkpt>
<trkpt lat="63.790342000" lon="20.366489000"><ele>30.0</ele><time>2013-09-29T16:45:15Z</time></trkpt>
<trkpt lat="63.790407000" lon="20.366697000"><ele>30.0</ele><time>2013-09-29T16:45:17Z</time></trkpt>
<trkpt lat="63.790500000" lon="20.366885000"><ele>30.0</ele><time>2013-09-29T16:45:20Z</time></trkpt>
<trkpt lat="63.790579000" lon="20.367033000"><ele>30.0</ele><time>2013-09-29T16:45:24Z</time></trkpt>
<trkpt lat="63.790670000" lon="20.367060000"><ele>30.0</ele><time>2013-09-29T16:45:28Z</time></trkpt>
<trkpt lat="63.790766000" lon="20.367086000"><ele>30.0</ele><time>2013-09-29T16:45:31Z</time></trkpt>
<trkpt lat="63.790856000" lon="20.367220000"><ele>30.0</ele><time>2013-09-29T16:45:34Z</time></trkpt>
<trkpt lat="63.790949000" lon="20.367308000"><ele>30.0</ele><time>2013-09-29T16:45:37Z</time></trkpt>
<trkpt lat="63.791060000" lon="20.367375000"><ele>30.0</ele><time>2013-09-29T16:45:40Z</time></trkpt>
<trkpt lat="63.791165000" lon="20.367414000"><ele>30.0</ele><time>2013-09-29T16:45:42Z</time></trkpt>
<trkpt lat="63.791275000" lon="20.367425000"><ele>30.0</ele><time>2013-09-29T16:45:44Z</time></trkpt>
<trkpt lat="63.791398000" lon="20.367461000"><ele>30.0</ele><time>2013-09-29T16:45:46Z</time></trkpt>
<trkpt lat="63.791511000" lon="20.367518000"><ele>30.0</ele><time>2013-09-29T16:45:48Z</time></trkpt>
<trkpt lat="63.791628000" lon="20.367585000"><ele>30.0</ele><time>2013-09-29T16:45:50Z</time></trkpt>
<trkpt lat="63.791760000" lon="20.367634000"><ele>30.0</ele><time>2013-09-29T16:45:52Z</time></trkpt>
<trkpt lat="63.791937000" lon="20.367643000"><ele>30.0</ele><time>2013-09-29T16:45:54Z</time></trkpt>
<trkpt lat="63.792086000" lon="20.367685000"><ele>30.0</ele><time>2013-09-29T16:45:56Z</time></trkpt>
<trkpt lat="63.792227000" lon="20.367793000"><ele>30.0</ele><time>2013-09-29T16:45:58Z</time></trkpt>
<trkpt lat="63.792346000" lon="20.367916000"><ele>30.0</ele><time>2013-09-29T16:46:00Z</time></trkpt>
<trkpt lat="63.792457000" lon="20.368048000"><ele>30.0</ele><time>2013-09-29T16:46:02Z</time></trkpt>
<trkpt lat="63.792562000" lon="20.368162000"><ele>30.0</ele><time>2013-09-29T16:46:04Z</time></trkpt>
<trkpt lat="63.792668000" lon="20.368301000"><ele>30.0</ele><time>2013-09-29T16:46:06Z</time></trkpt>
<trkpt lat="63.792759000" lon="20.368480000"><ele>30.0</ele><time>2013-09-29T16:46:08Z</time></trkpt>
<trkpt lat="63.792823000" lon="20.368718000"><ele>30.0</ele><time>2013-09-29T16:46:10Z</time></trkpt>
<trkpt lat="63.792904000" lon="20.368906000"><ele>30.0</ele><time>2013-09-29T16:46:12Z</time></trkpt>
<trkpt lat="63.792980000" lon="20.369081000"><ele>30.0</ele><time>2013-09-29T16:46:14Z</time></trkpt>
<trkpt lat="63.793068000" lon="20.369185000"><ele>30.0</ele><time>2013-09-29T16:46:16Z</time></trkpt>
<trkpt lat="63.793174000" lon="20.369239000"><ele>30.0</ele><time>2013-09-29T16:46:18Z</time></trkpt>
<trkpt lat="63.793294000" lon="20.369304000"><ele>29.9</ele><time>2013-09-29T16:46:20Z</time></trkpt>
<trkpt lat="63.793401000" lon="20.369436000"><ele>29.8</ele><time>2013-09-29T16:46:22Z</time></trkpt>
<trkpt lat="63.793528000" lon="20.369602000"><ele>29.7</ele><time>2013-09-29T16:46:24Z</time></trkpt>
<trkpt lat="63.793635000" lon="20.369728000"><ele>29.6</ele><time>2013-09-29T16:46:26Z</time></trkpt>
<trkpt lat="63.793774000" lon="20.369867000"><ele>29.5</ele><time>2013-09-29T16:46:28Z</time></trkpt>
<trkpt lat="63.793890000" lon="20.369989000"><ele>29.3</ele><time>2013-09-29T16:46:30Z</time></trkpt>
<trkpt lat="63.794010000" lon="20.370001000"><ele>29.1</ele><time>2013-09-29T16:46:32Z</time></trkpt>
<trkpt lat="63.794127000" lon="20.369915000"><ele>28.9</ele><time>2013-09-29T16:46:34Z</time></trkpt>
<trkpt lat="63.794217000" lon="20.369801000"><ele>28.4</ele><time>2013-09-29T16:46:36Z</time></trkpt>
<trkpt lat="63.794301000" lon="20.369687000"><ele>27.8</ele><time>2013-09-29T16:46:38Z</time></trkpt>
<trkpt lat="63.794403000" lon="20.369622000"><ele>27.3</ele><time>2013-09-29T16:46:40Z</time></trkpt>
<trkpt lat="63.794506000" lon="20.369590000"><ele>26.8</ele><time>2013-09-29T16:46:42Z</time></trkpt>
<trkpt lat="63.794616000" lon="20.369579000"><ele>26.4</ele><time>2013-09-29T16:46:44Z</time></trkpt>
<trkpt lat="63.794724000" lon="20.369558000"><ele>25.9</ele><time>2013-09-29T16:46:46Z</time></trkpt>
<trkpt lat="63.794835000" lon="20.369533000"><ele>25.5</ele><time>2013-09-29T16:46:48Z</time></trkpt>
<trkpt lat="63.794956000" lon="20.369519000"><ele>24.9</ele><time>2013-09-29T16:46:50Z</time></trkpt>
<trkpt lat="63.795049000" lon="20.369503000"><ele>24.4</ele><time>2013-09-29T16:46:52Z</time></trkpt>
<trkpt lat="63.795155000" lon="20.369488000"><ele>23.8</ele><time>2013-09-29T16:46:54Z</time></trkpt>
<trkpt lat="63.795247000" lon="20.369485000"><ele>23.4</ele><time>2013-09-29T16:46:56Z</time></trkpt>
<trkpt lat="63.795363000" lon="20.369464000"><ele>23.3</ele><time>2013-09-29T16:46:59Z</time></trkpt>
<trkpt lat="63.795449000" lon="20.369228000"><ele>23.2</ele><time>2013-09-29T16:47:02Z</time></trkpt>
<trkpt lat="63.795511000" lon="20.369024000"><ele>23.1</ele><time>2013-09-29T16:47:04Z</time></trkpt>
<trkpt lat="63.795577000" lon="20.368841000"><ele>23.0</ele><time>2013-09-29T16:47:06Z</time></trkpt>
<trkpt lat="63.795652000" lon="20.368654000"><ele>23.0</ele><time>2013-09-29T16:47:08Z</time></trkpt>
<trkpt lat="63.795726000" lon="20.368475000"><ele>23.0</ele><time>2013-09-29T16:47:10Z</time></trkpt>
<trkpt lat="63.795804000" lon="20.368316000"><ele>22.9</ele><time>2013-09-29T16:47:12Z</time></trkpt>
<trkpt lat="63.795894000" lon="20.368162000"><ele>23.0</ele><time>2013-09-29T16:47:14Z</time></trkpt>
<trkpt lat="63.795981000" lon="20.368017000"><ele>23.1</ele><time>2013-09-29T16:47:16Z</time></trkpt>
<trkpt lat="63.796074000" lon="20.367873000"><ele>23.2</ele><time>2013-09-29T16:47:18Z</time></trkpt>
<trkpt lat="63.796184000" lon="20.367728000"><ele>23.2</ele><time>2013-09-29T16:47:20Z</time></trkpt>
<trkpt lat="63.796307000" lon="20.367624000"><ele>23.2</ele><time>2013-09-29T16:47:22Z</time></trkpt>
<trkpt lat="63.796429000" lon="20.367582000"><ele>23.2</ele><time>2013-09-29T16:47:24Z</time></trkpt>
<trkpt lat="63.796548000" lon="20.367567000"><ele>23.1</ele><time>2013-09-29T16:47:26Z</time></trkpt>
<trkpt lat="63.796673000" lon="20.367575000"><ele>23.0</ele><time>2013-09-29T16:47:28Z</time></trkpt>
<trkpt lat="63.796798000" lon="20.367600000"><ele>22.8</ele><time>2013-09-29T16:47:30Z</time></trkpt>
<trkpt lat="63.796917000" lon="20.367631000"><ele>22.6</ele><time>2013-09-29T16:47:32Z</time></trkpt>
<trkpt lat="63.797029000" lon="20.367658000"><ele>22.5</ele><time>2013-09-29T16:47:34Z</time></trkpt>
<trkpt lat="63.797131000" lon="20.367672000"><ele>22.5</ele><time>2013-09-29T16:47:36Z</time></trkpt>
<trkpt lat="63.797251000" lon="20.367671000"><ele>22.4</ele><time>2013-09-29T16:47:38Z</time></trkpt>
<trkpt lat="63.797380000" lon="20.367662000"><ele>22.3</ele><time>2013-09-29T16:47:40Z</time></trkpt>
<trkpt lat="63.797499000" lon="20.367621000"><ele>22.2</ele><time>2013-09-29T16:47:42Z</time></trkpt>
<trkpt lat="63.797616000" lon="20.367547000"><ele>22.1</ele><time>2013-09-29T16:47:44Z</time></trkpt>
<trkpt lat="63.797728000" lon="20.367453000"><ele>22.0</ele><time>2013-09-29T16:47:46Z</time></trkpt>
<trkpt lat="63.797832000" lon="20.367306000"><ele>22.0</ele><time>2013-09-29T16:47:48Z</time></trkpt>
<trkpt lat="63.797928000" lon="20.367134000"><ele>22.1</ele><time>2013-09-29T16:47:50Z</time></trkpt>
<trkpt lat="63.798015000" lon="20.366925000"><ele>22.2</ele><time>2013-09-29T16:47:52Z</time></trkpt>
<trkpt lat="63.798096000" lon="20.366718000"><ele>22.3</ele><time>2013-09-29T16:47:54Z</time></trkpt>
<trkpt lat="63.798181000" lon="20.366494000"><ele>22.4</ele><time>2013-09-29T16:47:56Z</time></trkpt>
<trkpt lat="63.798276000" lon="20.366300000"><ele>22.4</ele><time>2013-09-29T16:47:58Z</time></trkpt>
<trkpt lat="63.798389000" lon="20.366123000"><ele>22.4</ele><time>2013-09-29T16:48:00Z</time></trkpt>
<trkpt lat="63.798510000" lon="20.366041000"><ele>22.4</ele><time>2013-09-29T16:48:02Z</time></trkpt>
<trkpt lat="63.798632000" lon="20.365969000"><ele>22.4</ele><time>2013-09-29T16:48:04Z</time></trkpt>
<trkpt lat="63.798760000" lon="20.365928000"><ele>22.4</ele><time>2013-09-29T16:48:06Z</time></trkpt>
<trkpt lat="63.798883000" lon="20.365915000"><ele>22.4</ele><time>2013-09-29T16:48:08Z</time></trkpt>
<trkpt lat="63.799004000" lon="20.365891000"><ele>22.4</ele><time>2013-09-29T16:48:10Z</time></trkpt>
<trkpt lat="63.799129000" lon="20.365866000"><ele>22.3</ele><time>2013-09-29T16:48:12Z</time></trkpt>
<trkpt lat="63.799249000" lon="20.365797000"><ele>22.2</ele><time>2013-09-29T16:48:14Z</time></trkpt>
<trkpt lat="63.799373000" lon="20.365716000"><ele>22.1</ele><time>2013-09-29T16:48:16Z</time></trkpt>
<trkpt lat="63.799497000" lon="20.365640000"><ele>22.0</ele><time>2013-09-29T16:48:18Z</time></trkpt>
<trkpt lat="63.799620000" lon="20.365549000"><ele>22.0</ele><time>2013-09-29T16:48:20Z</time></trkpt>
<trkpt lat="63.799734000" lon="20.365460000"><ele>22.0</ele><time>2013-09-29T16:48:22Z</time></trkpt>
<trkpt lat="63.799848000" lon="20.365371000"><ele>22.0</ele><time>2013-09-29T16:48:24Z</time></trkpt>
<trkpt lat="63.799967000" lon="20.365299000"><ele>22.1</ele><time>2013-09-29T16:48:26Z</time></trkpt>
<trkpt lat="63.800079000" lon="20.365231000"><ele>22.2</ele><time>2013-09-29T16:48:28Z</time></trkpt>
<trkpt lat="63.800187000" lon="20.365160000"><ele>22.3</ele><time>2013-09-29T16:48:30Z</time></trkpt>
<trkpt lat="63.800293000" lon="20.365095000"><ele>22.4</ele><time>2013-09-29T16:48:32Z</time></trkpt>
<trkpt lat="63.800416000" lon="20.365024000"><ele>22.5</ele><time>2013-09-29T16:48:34Z</time></trkpt>
<trkpt lat="63.800537000" lon="20.364951000"><ele>22.5</ele><time>2013-09-29T16:48:36Z</time></trkpt>
<trkpt lat="63.800664000" lon="20.364915000"><ele>22.7</ele><time>2013-09-29T16:48:38Z</time></trkpt>
<trkpt lat="63.800798000" lon="20.364896000"><ele>22.9</ele><time>2013-09-29T16:48:40Z</time></trkpt>
<trkpt lat="63.800930000" lon="20.364882000"><ele>23.2</ele><time>2013-09-29T16:48:42Z</time></trkpt>
<trkpt lat="63.801056000" lon="20.364880000"><ele>23.5</ele><time>2013-09-29T16:48:44Z</time></trkpt>
<trkpt lat="63.801167000" lon="20.364858000"><ele>23.7</ele><time>2013-09-29T16:48:46Z</time></trkpt>
<trkpt lat="63.801283000" lon="20.364798000"><ele>23.9</ele><time>2013-09-29T16:48:48Z</time></trkpt>
<trkpt lat="63.801393000" lon="20.364722000"><ele>24.1</ele><time>2013-09-29T16:48:50Z</time></trkpt>
<trkpt lat="63.801504000" lon="20.364601000"><ele>24.4</ele><time>2013-09-29T16:48:52Z</time></trkpt>
<trkpt lat="63.801610000" lon="20.364456000"><ele>24.6</ele><time>2013-09-29T16:48:54Z</time></trkpt>
<trkpt lat="63.801700000" lon="20.364307000"><ele>24.9</ele><time>2013-09-29T16:48:56Z</time></trkpt>
<trkpt lat="63.801772000" lon="20.364136000"><ele>25.3</ele><time>2013-09-29T16:48:58Z</time></trkpt>
<trkpt lat="63.801846000" lon="20.363931000"><ele>25.5</ele><time>2013-09-29T16:49:00Z</time></trkpt>
<trkpt lat="63.801915000" lon="20.363725000"><ele>25.9</ele><time>2013-09-29T16:49:02Z</time></trkpt>
<trkpt lat="63.801976000" lon="20.363519000"><ele>26.2</ele><time>2013-09-29T16:49:04Z</time></trkpt>
<trkpt lat="63.802037000" lon="20.363337000"><ele>26.5</ele><time>2013-09-29T16:49:06Z</time></trkpt>
<trkpt lat="63.802105000" lon="20.363170000"><ele>26.7</ele><time>2013-09-29T16:49:08Z</time></trkpt>
<trkpt lat="63.802177000" lon="20.363028000"><ele>27.0</ele><time>2013-09-29T16:49:10Z</time></trkpt>
<trkpt lat="63.802258000" lon="20.362905000"><ele>27.3</ele><time>2013-09-29T16:49:12Z</time></trkpt>
<trkpt lat="63.802345000" lon="20.362809000"><ele>27.5</ele><time>2013-09-29T16:49:14Z</time></trkpt>
<trkpt lat="63.802434000" lon="20.362721000"><ele>27.6</ele><time>2013-09-29T16:49:16Z</time></trkpt>
<trkpt lat="63.802525000" lon="20.362674000"><ele>28.0</ele><time>2013-09-29T16:49:18Z</time></trkpt>
<trkpt lat="63.802658000" lon="20.362657000"><ele>28.3</ele><time>2013-09-29T16:49:21Z</time></trkpt>
<trkpt lat="63.802747000" lon="20.362710000"><ele>28.5</ele><time>2013-09-29T16:49:23Z</time></trkpt>
<trkpt lat="63.802839000" lon="20.362777000"><ele>28.7</ele><time>2013-09-29T16:49:25Z</time></trkpt>
<trkpt lat="63.802931000" lon="20.362805000"><ele>28.9</ele><time>2013-09-29T16:49:27Z</time></trkpt>
<trkpt lat="63.803022000" lon="20.362773000"><ele>29.1</ele><time>2013-09-29T16:49:29Z</time></trkpt>
<trkpt lat="63.803101000" lon="20.362667000"><ele>29.3</ele><time>2013-09-29T16:49:31Z</time></trkpt>
<trkpt lat="63.803178000" lon="20.362424000"><ele>29.6</ele><time>2013-09-29T16:49:34Z</time></trkpt>
<trkpt lat="63.803194000" lon="20.362213000"><ele>30.0</ele><time>2013-09-29T16:49:36Z</time></trkpt>
<trkpt lat="63.803202000" lon="20.362005000"><ele>30.4</ele><time>2013-09-29T16:49:38Z</time></trkpt>
<trkpt lat="63.803212000" lon="20.361792000"><ele>30.7</ele><time>2013-09-29T16:49:40Z</time></trkpt>
<trkpt lat="63.803228000" lon="20.361557000"><ele>31.1</ele><time>2013-09-29T16:49:42Z</time></trkpt>
<trkpt lat="63.803249000" lon="20.361313000"><ele>31.5</ele><time>2013-09-29T16:49:44Z</time></trkpt>
<trkpt lat="63.803315000" lon="20.361052000"><ele>31.8</ele><time>2013-09-29T16:49:47Z</time></trkpt>
<trkpt lat="63.803373000" lon="20.360812000"><ele>32.2</ele><time>2013-09-29T16:49:50Z</time></trkpt>
<trkpt lat="63.803432000" lon="20.360597000"><ele>33.1</ele><time>2013-09-29T16:49:53Z</time></trkpt>
<trkpt lat="63.803507000" lon="20.360371000"><ele>34.0</ele><time>2013-09-29T16:49:56Z</time></trkpt>
<trkpt lat="63.803594000" lon="20.360169000"><ele>34.9</ele><time>2013-09-29T16:49:59Z</time></trkpt>
<trkpt lat="63.803689000" lon="20.360013000"><ele>35.6</ele><time>2013-09-29T16:50:02Z</time></trkpt>
<trkpt lat="63.803797000" lon="20.359869000"><ele>36.4</ele><time>2013-09-29T16:50:05Z</time></trkpt>
<trkpt lat="63.803887000" lon="20.359763000"><ele>37.1</ele><time>2013-09-29T16:50:07Z</time></trkpt>
<trkpt lat="63.804016000" lon="20.359634000"><ele>37.8</ele><time>2013-09-29T16:50:10Z</time></trkpt>
<trkpt lat="63.804112000" lon="20.359526000"><ele>38.4</ele><time>2013-09-29T16:50:12Z</time></trkpt>
<trkpt lat="63.804213000" lon="20.359424000"><ele>38.8</ele><time>2013-09-29T16:50:14Z</time></trkpt>
<trkpt lat="63.804321000" lon="20.359330000"><ele>39.3</ele><time>2013-09-29T16:50:16Z</time></trkpt>
<trkpt lat="63.804422000" lon="20.359232000"><ele>39.7</ele><time>2013-09-29T16:50:18Z</time></trkpt>
<trkpt lat="63.804497000" lon="20.359093000"><ele>39.5</ele><time>2013-09-29T16:50:20Z</time></trkpt>
<trkpt lat="63.804542000" lon="20.358886000"><ele>39.4</ele><time>2013-09-29T16:50:22Z</time></trkpt>
<trkpt lat="63.804570000" lon="20.358649000"><ele>39.2</ele><time>2013-09-29T16:50:24Z</time></trkpt>
<trkpt lat="63.804582000" lon="20.358386000"><ele>39.0</ele><time>2013-09-29T16:50:26Z</time></trkpt>
<trkpt lat="63.804585000" lon="20.358130000"><ele>38.8</ele><time>2013-09-29T16:50:28Z</time></trkpt>
<trkpt lat="63.804582000" lon="20.357874000"><ele>38.6</ele><time>2013-09-29T16:50:30Z</time></trkpt>
<trkpt lat="63.804578000" lon="20.357614000"><ele>38.5</ele><time>2013-09-29T16:50:32Z</time></trkpt>
<trkpt lat="63.804584000" lon="20.357352000"><ele>38.3</ele><time>2013-09-29T16:50:34Z</time></trkpt>
<trkpt lat="63.804567000" lon="20.357099000"><ele>38.2</ele><time>2013-09-29T16:50:36Z</time></trkpt>
<trkpt lat="63.804554000" lon="20.356862000"><ele>38.1</ele><time>2013-09-29T16:50:38Z</time></trkpt>
<trkpt lat="63.804553000" lon="20.356639000"><ele>38.0</ele><time>2013-09-29T16:50:40Z</time></trkpt>
<trkpt lat="63.804555000" lon="20.356367000"><ele>38.0</ele><time>2013-09-29T16:50:42Z</time></trkpt>
<trkpt lat="63.804554000" lon="20.356116000"><ele>38.0</ele><time>2013-09-29T16:50:44Z</time></trkpt>
<trkpt lat="63.804560000" lon="20.355903000"><ele>38.0</ele><time>2013-09-29T16:50:46Z</time></trkpt>
<trkpt lat="63.804564000" lon="20.355686000"><ele>38.0</ele><time>2013-09-29T16:50:48Z</time></trkpt>
<trkpt lat="63.804556000" lon="20.355467000"><ele>38.0</ele><time>2013-09-29T16:50:50Z</time></trkpt>
<trkpt lat="63.804543000" lon="20.355257000"><ele>38.0</ele><time>2013-09-29T16:50:52Z</time></trkpt>
<trkpt lat="63.804530000" lon="20.355047000"><ele>38.0</ele><time>2013-09-29T16:50:54Z</time></trkpt>
<trkpt lat="63.804542000" lon="20.354794000"><ele>38.0</ele><time>2013-09-29T16:50:57Z</time></trkpt>
<trkpt lat="63.804558000" lon="20.354544000"><ele>38.0</ele><time>2013-09-29T16:51:00Z</time></trkpt>
<trkpt lat="63.804560000" lon="20.354302000"><ele>38.0</ele><time>2013-09-29T16:51:03Z</time></trkpt>
<trkpt lat="63.804564000" lon="20.354031000"><ele>38.1</ele><time>2013-09-29T16:51:06Z</time></trkpt>
<trkpt lat="63.804565000" lon="20.353735000"><ele>38.2</ele><time>2013-09-29T16:51:09Z</time></trkpt>
<trkpt lat="63.804562000" lon="20.353507000"><ele>38.3</ele><time>2013-09-29T16:51:11Z</time></trkpt>
<trkpt lat="63.804564000" lon="20.353286000"><ele>38.4</ele><time>2013-09-29T16:51:13Z</time></trkpt>
<trkpt lat="63.804571000" lon="20.353043000"><ele>38.5</ele><time>2013-09-29T16:51:15Z</time></trkpt>
<trkpt lat="63.804563000" lon="20.352831000"><ele>38.5</ele><time>2013-09-29T16:51:17Z</time></trkpt>
<trkpt lat="63.804533000" lon="20.352592000"><ele>38.7</ele><time>2013-09-29T16:51:21Z</time></trkpt>
<trkpt lat="63.804463000" lon="20.352410000"><ele>38.9</ele><time>2013-09-29T16:51:28Z</time></trkpt>
<trkpt lat="63.804469000" lon="20.352135000"><ele>39.1</ele><time>2013-09-29T16:51:38Z</time></trkpt>
<trkpt lat="63.804470000" lon="20.351856000"><ele>39.3</ele><time>2013-09-29T16:51:41Z</time></trkpt>
<trkpt lat="63.804464000" lon="20.351566000"><ele>39.5</ele><time>2013-09-29T16:51:44Z</time></trkpt>
<trkpt lat="63.804466000" lon="20.351331000"><ele>39.5</ele><time>2013-09-29T16:51:46Z</time></trkpt>
<trkpt lat="63.804471000" lon="20.351086000"><ele>39.6</ele><time>2013-09-29T16:51:48Z</time></trkpt>
<trkpt lat="63.804474000" lon="20.350864000"><ele>39.7</ele><time>2013-09-29T16:51:50Z</time></trkpt>
<trkpt lat="63.804480000" lon="20.350647000"><ele>39.8</ele><time>2013-09-29T16:51:52Z</time></trkpt>
<trkpt lat="63.804484000" lon="20.350400000"><ele>39.9</ele><time>2013-09-29T16:51:54Z</time></trkpt>
<trkpt lat="63.804487000" lon="20.350155000"><ele>40.0</ele><time>2013-09-29T16:51:56Z</time></trkpt>
<trkpt lat="63.804495000" lon="20.349918000"><ele>40.0</ele><time>2013-09-29T16:51:58Z</time></trkpt>
<trkpt lat="63.804501000" lon="20.349684000"><ele>40.0</ele><time>2013-09-29T16:52:00Z</time></trkpt>
<trkpt lat="63.804504000" lon="20.349449000"><ele>40.0</ele><time>2013-09-29T16:52:02Z</time></trkpt>
<trkpt lat="63.804507000" lon="20.349212000"><ele>40.0</ele><time>2013-09-29T16:52:04Z</time></trkpt>
<trkpt lat="63.804511000" lon="20.348989000"><ele>40.1</ele><time>2013-09-29T16:52:06Z</time></trkpt>
<trkpt lat="63.804512000" lon="20.348763000"><ele>40.2</ele><time>2013-09-29T16:52:08Z</time></trkpt>
<trkpt lat="63.804518000" lon="20.348533000"><ele>40.3</ele><time>2013-09-29T16:52:10Z</time></trkpt>
<trkpt lat="63.804523000" lon="20.348314000"><ele>40.4</ele><time>2013-09-29T16:52:12Z</time></trkpt>
<trkpt lat="63.804532000" lon="20.348095000"><ele>40.5</ele><time>2013-09-29T16:52:14Z</time></trkpt>
<trkpt lat="63.804534000" lon="20.347857000"><ele>40.5</ele><time>2013-09-29T16:52:16Z</time></trkpt>
<trkpt lat="63.804535000" lon="20.347628000"><ele>40.6</ele><time>2013-09-29T16:52:18Z</time></trkpt>
<trkpt lat="63.804512000" lon="20.347417000"><ele>40.7</ele><time>2013-09-29T16:52:20Z</time></trkpt>
<trkpt lat="63.804424000" lon="20.347335000"><ele>40.8</ele><time>2013-09-29T16:52:22Z</time></trkpt>
<trkpt lat="63.804330000" lon="20.347331000"><ele>40.9</ele><time>2013-09-29T16:52:24Z</time></trkpt>
<trkpt lat="63.804234000" lon="20.347334000"><ele>41.0</ele><time>2013-09-29T16:52:26Z</time></trkpt>
<trkpt lat="63.804126000" lon="20.347324000"><ele>41.0</ele><time>2013-09-29T16:52:28Z</time></trkpt>
<trkpt lat="63.804016000" lon="20.347318000"><ele>41.0</ele><time>2013-09-29T16:52:30Z</time></trkpt>
<trkpt lat="63.803920000" lon="20.347306000"><ele>41.0</ele><time>2013-09-29T16:52:32Z</time></trkpt>
<trkpt lat="63.803819000" lon="20.347302000"><ele>41.0</ele><time>2013-09-29T16:52:34Z</time></trkpt>
<trkpt lat="63.803722000" lon="20.347239000"><ele>41.0</ele><time>2013-09-29T16:52:36Z</time></trkpt>
<trkpt lat="63.803628000" lon="20.347163000"><ele>41.0</ele><time>2013-09-29T16:52:38Z</time></trkpt>
<trkpt lat="63.803556000" lon="20.347038000"><ele>41.0</ele><time>2013-09-29T16:52:40Z</time></trkpt>
<trkpt lat="63.803545000" lon="20.346788000"><ele>41.0</ele><time>2013-09-29T16:52:43Z</time></trkpt>
<trkpt lat="63.803540000" lon="20.346507000"><ele>41.0</ele><time>2013-09-29T16:52:46Z</time></trkpt>
<trkpt lat="63.803603000" lon="20.346295000"><ele>41.0</ele><time>2013-09-29T16:52:49Z</time></trkpt>
<trkpt lat="63.803603000" lon="20.346295000"><ele>41.0</ele><time>2013-09-29T16:52:49Z</time></trkpt>
</trkseg>
</trk>
</gpx>
